NOAA Web Site Link Tides and Currents Home Page Transparent placeholder image

PORTS® Data Listing: 8516945 Kings Point, NY

CO-OPS RAW PORTS DATA

************************      PRELIMINARY DATA      ************************** 

     THIS RAW DATA HAS NOT BEEN SUBJECT TO THE NATIONAL OCEAN SERVICE'S        
     QUALITY CONTROL OR QUALITY ASSURANCE PROCEDURES AND DOES NOT MEET         
     THE CRITERIA AND STANDARDS OF OFFICIAL NATIONAL OCEAN SERVICE             
     DATA.  IT IS RELEASED FOR LIMITED PUBLIC USE AS PRELIMINARY DATA TO       
     BE USED ONLY WITH APPROPRIATE CAUTION.                                    

************************      PRELIMINARY DATA      ************************** 


       CD   -   Calendar date
       T    -   Time
       TZ   -   Timezone
       PW   -   Predicted water level (feet above MLLW)
       OW   -   Observed water level (feet above MLLW)
       WS   -   Wind speed (knots)
       WD   -   Wind direction (degrees true)
       WG   -   Wind gust (knots)
       AT   -   Air temperature (degrees farenheit)
       WT   -   Water temperature (degrees farenheit)
       AP   -   Air pressure (millibars)
       SA   -   Salinty (PSU - Practical Salinity Units)
       SG   -   Specific gravity
       RH   -   Relative humidity
       AG   -   Air gap (feet)
       VI   -   Visibility (nautical miles)

       ** NOTE **
       A variable that has its data fields filled with "9"s, indicates that
       data was not collected for that sample period.
       **********


STATION NAME: Kings Point (8516945)
****************************************************************************************************
    CD       T    TZ    PW     OW    WS   WD   WG    AT    WT    AP    SA    SG     RH    AG   VI
****************************************************************************************************
2019/08/18 16:30 EDT    5.62   6.47   15  212   17  82.0  74.5 1015.8 -9.9 -9.999 -99.9 -99.99 -9.99
2019/08/18 16:36 EDT    5.44   6.30   16  210   19  82.0  74.5 1015.9 -9.9 -9.999 -99.9 -99.99 -9.99
2019/08/18 16:42 EDT    5.25   6.07   16  215   17  81.7  74.5 1015.8 -9.9 -9.999 -99.9 -99.99 -9.99
2019/08/18 16:48 EDT    5.05   5.86   15  211   18  81.3  74.5 1015.7 -9.9 -9.999 -99.9 -99.99 -9.99
2019/08/18 16:54 EDT    4.85   5.63   17  224   20  82.0  74.5 1015.6 -9.9 -9.999 -99.9 -99.99 -9.99
2019/08/18 17:00 EDT    4.64   5.41   18  217   20  81.7  74.7 1015.4 -9.9 -9.999 -99.9 -99.99 -9.99
2019/08/18 17:06 EDT    4.42   5.19   19  216   20  81.5  74.7 1015.1 -9.9 -9.999 -99.9 -99.99 -9.99
2019/08/18 17:12 EDT    4.21   4.96   16  224   19  81.3  74.7 1015.4 -9.9 -9.999 -99.9 -99.99 -9.99
2019/08/18 17:18 EDT    3.99   4.72   17  220   18  81.1  74.7 1015.3 -9.9 -9.999 -99.9 -99.99 -9.99
2019/08/18 17:24 EDT    3.77   4.49   17  220   19  81.1  74.7 1015.4 -9.9 -9.999 -99.9 -99.99 -9.99
2019/08/18 17:30 EDT    3.55   4.26   16  214   18  80.4  74.7 1015.5 -9.9 -9.999 -99.9 -99.99 -9.99
2019/08/18 17:36 EDT    3.34   4.03   13  218   18  80.1  74.8 1015.7 -9.9 -9.999 -99.9 -99.99 -9.99
2019/08/18 17:42 EDT    3.12   3.79   11  225   15  79.9  74.8 1015.6 -9.9 -9.999 -99.9 -99.99 -9.99
2019/08/18 17:48 EDT    2.91   3.55   11  223   12  80.1  74.8 1015.4 -9.9 -9.999 -99.9 -99.99 -9.99
2019/08/18 17:54 EDT    2.71   3.34   10  226   14  80.1  74.8 1015.4 -9.9 -9.999 -99.9 -99.99 -9.99
2019/08/18 18:00 EDT    2.51   3.12    9  230   11  79.9  74.8 1015.6 -9.9 -9.999 -99.9 -99.99 -9.99
2019/08/18 18:06 EDT    2.32   2.91    7  224   12  80.1  74.8 1015.8 -9.9 -9.999 -99.9 -99.99 -9.99
2019/08/18 18:12 EDT    2.14   2.72    7  230   10  80.6  74.8 1015.5 -9.9 -9.999 -99.9 -99.99 -9.99
2019/08/18 18:18 EDT    1.96   2.54    8  237   10  80.2  74.8 1015.8 -9.9 -9.999 -99.9 -99.99 -9.99
2019/08/18 18:24 EDT    1.80   2.37   10  239   12  81.0  74.8 1015.6 -9.9 -9.999 -99.9 -99.99 -9.99
2019/08/18 18:30 EDT    1.65   2.20   10  242   12  80.6  74.8 1015.6 -9.9 -9.999 -99.9 -99.99 -9.99
2019/08/18 18:36 EDT    1.51   2.06    9  296   11  78.8  74.8 1015.3 -9.9 -9.999 -99.9 -99.99 -9.99
2019/08/18 18:42 EDT    1.38   1.91   11  290   13  77.5  74.8 1015.4 -9.9 -9.999 -99.9 -99.99 -9.99
2019/08/18 18:48 EDT    1.26   1.79    6  261   13  77.7  75.0 1015.3 -9.9 -9.999 -99.9 -99.99 -9.99
2019/08/18 18:54 EDT    1.16   1.68    3  267    5  77.5  75.0 1015.3 -9.9 -9.999 -99.9 -99.99 -9.99
2019/08/18 19:00 EDT    1.06   1.59    1  184    2  77.7  75.0 1015.2 -9.9 -9.999 -99.9 -99.99 -9.99
2019/08/18 19:06 EDT    0.98   1.50    2  223    4  77.9  75.0 1015.0 -9.9 -9.999 -99.9 -99.99 -9.99
2019/08/18 19:12 EDT    0.91   1.42    5  213    6  79.0  75.2 1014.9 -9.9 -9.999 -99.9 -99.99 -9.99
2019/08/18 19:18 EDT    0.85   1.37    5  213    6  79.0  75.2 1014.9 -9.9 -9.999 -99.9 -99.99 -9.99
2019/08/18 19:24 EDT    0.80   1.33    5  208    6  79.0  75.2 1015.0 -9.9 -9.999 -99.9 -99.99 -9.99
2019/08/18 19:30 EDT    0.76   1.28    5  218    6  79.2  75.2 1015.2 -9.9 -9.999 -99.9 -99.99 -9.99
2019/08/18 19:36 EDT    0.73   1.26    5  218    6  79.2  75.2 1015.5 -9.9 -9.999 -99.9 -99.99 -9.99
2019/08/18 19:42 EDT    0.71   1.22    8  207    8  78.8  75.2 1015.6 -9.9 -9.999 -99.9 -99.99 -9.99
2019/08/18 19:48 EDT    0.69   1.19    6  217    7  79.0  75.2 1015.8 -9.9 -9.999 -99.9 -99.99 -9.99
2019/08/18 19:54 EDT    0.68   1.18    4  281    7  78.6  75.4 1015.8 -9.9 -9.999 -99.9 -99.99 -9.99
2019/08/18 20:00 EDT    0.68   1.17    6  356    9  77.5  75.4 1016.4 -9.9 -9.999 -99.9 -99.99 -9.99
2019/08/18 20:06 EDT    0.68   1.18    6  356    9  77.5  75.4 1016.4 -9.9 -9.999 -99.9 -99.99 -9.99
2019/08/18 20:12 EDT    0.69   1.16    9  353   12  77.7  75.4 1016.7 -9.9 -9.999 -99.9 -99.99 -9.99
2019/08/18 20:18 EDT    0.70   1.14   14    4   19  79.3  75.4 1016.9 -9.9 -9.999 -99.9 -99.99 -9.99
2019/08/18 20:24 EDT    0.72   1.14   11    6   19  78.8  75.4 1016.9 -9.9 -9.999 -99.9 -99.99 -9.99
2019/08/18 20:30 EDT    0.74   1.12   11    6   19  78.3  75.4 1016.8 -9.9 -9.999 -99.9 -99.99 -9.99
2019/08/18 20:36 EDT    0.76   1.11   15   26   19  78.6  75.4 1016.8 -9.9 -9.999 -99.9 -99.99 -9.99
2019/08/18 20:42 EDT    0.78   1.11   15   26   19  78.6  75.4 1016.8 -9.9 -9.999 -99.9 -99.99 -9.99
2019/08/18 20:48 EDT    0.81   1.11    9   41   13  78.3  75.4 1016.7 -9.9 -9.999 -99.9 -99.99 -9.99
2019/08/18 20:54 EDT    0.84   1.10    9   35   12  77.5  75.4 1016.6 -9.9 -9.999 -99.9 -99.99 -9.99
2019/08/18 21:00 EDT    0.87   1.11    5   63    9  77.4  75.4 1016.8 -9.9 -9.999 -99.9 -99.99 -9.99
2019/08/18 21:06 EDT    0.91   1.14    6   59    8  77.4  75.4 1016.7 -9.9 -9.999 -99.9 -99.99 -9.99
2019/08/18 21:12 EDT    0.95   1.18    3   46    5  77.2  75.4 1016.5 -9.9 -9.999 -99.9 -99.99 -9.99
2019/08/18 21:18 EDT    1.00   1.22    4   83    5  77.0  75.4 1016.6 -9.9 -9.999 -99.9 -99.99 -9.99
2019/08/18 21:24 EDT    1.05   1.27    3  100    4  76.8  75.4 1016.5 -9.9 -9.999 -99.9 -99.99 -9.99
2019/08/18 21:30 EDT    1.11   1.32    3   57    6  76.8  75.4 1016.4 -9.9 -9.999 -99.9 -99.99 -9.99
2019/08/18 21:36 EDT    1.18   1.39    7   43    8  76.8  75.2 1016.4 -9.9 -9.999 -99.9 -99.99 -9.99
2019/08/18 21:42 EDT    1.25   1.48    3   75    7  76.6  75.2 1016.4 -9.9 -9.999 -99.9 -99.99 -9.99
2019/08/18 21:48 EDT    1.34   1.58    1  101    3  76.6  75.2 1016.4 -9.9 -9.999 -99.9 -99.99 -9.99
2019/08/18 21:54 EDT    1.43   1.68    1   28    3  76.5  75.0 1016.8 -9.9 -9.999 -99.9 -99.99 -9.99
2019/08/18 22:00 EDT    1.54   1.79    3  178    4  76.1  74.8 1016.8 -9.9 -9.999 -99.9 -99.99 -9.99
2019/08/18 22:06 EDT    1.65   1.90    1  117    3  75.9  74.5 1016.8 -9.9 -9.999 -99.9 -99.99 -9.99
2019/08/18 22:12 EDT    1.78   2.04    3  106    4  75.9  74.3 1016.8 -9.9 -9.999 -99.9 -99.99 -9.99
2019/08/18 22:18 EDT    1.92   2.21    3  130    4  75.9  74.3 1016.8 -9.9 -9.999 -99.9 -99.99 -9.99
2019/08/18 22:24 EDT    2.07   2.38    4  150    7  75.7  74.1 1016.5 -9.9 -9.999 -99.9 -99.99 -9.99
2019/08/18 22:30 EDT    2.23   2.55    2  172    5  75.4  74.1 1016.3 -9.9 -9.999 -99.9 -99.99 -9.99
2019/08/18 22:36 EDT    2.41   2.74    2  101    3  75.2  74.1 1016.3 -9.9 -9.999 -99.9 -99.99 -9.99
2019/08/18 22:42 EDT    2.59   2.93    2  143    4  75.2  74.1 1016.3 -9.9 -9.999 -99.9 -99.99 -9.99
2019/08/18 22:48 EDT    2.79   3.13    1  169    3  75.2  74.1 1016.2 -9.9 -9.999 -99.9 -99.99 -9.99
2019/08/18 22:54 EDT    3.00   3.33    2  145    3  74.7  74.1 1016.0 -9.9 -9.999 -99.9 -99.99 -9.99
2019/08/18 23:00 EDT    3.21   3.55    2  139    3  74.7  74.1 1015.8 -9.9 -9.999 -99.9 -99.99 -9.99
2019/08/18 23:06 EDT    3.43   3.77    1  151    3  74.7  74.1 1015.8 -9.9 -9.999 -99.9 -99.99 -9.99
2019/08/18 23:12 EDT    3.66   4.00    1   68    2  74.8  74.1 1015.8 -9.9 -9.999 -99.9 -99.99 -9.99
2019/08/18 23:18 EDT    3.89   4.24    3  241    4  74.7  74.1 1015.9 -9.9 -9.999 -99.9 -99.99 -9.99
2019/08/18 23:24 EDT    4.12   4.47    2  262    2  73.9  74.1 1016.1 -9.9 -9.999 -99.9 -99.99 -9.99
2019/08/18 23:30 EDT    4.36   4.72    2  202    3  73.9  74.1 1016.1 -9.9 -9.999 -99.9 -99.99 -9.99
2019/08/18 23:36 EDT    4.60   4.95    1  198    1  73.6  74.1 1016.0 -9.9 -9.999 -99.9 -99.99 -9.99
2019/08/18 23:42 EDT    4.83   5.19    0  200    1  73.6  74.1 1015.8 -9.9 -9.999 -99.9 -99.99 -9.99
2019/08/18 23:48 EDT    5.06   5.40    3  196    3  73.4  74.3 1015.7 -9.9 -9.999 -99.9 -99.99 -9.99
2019/08/18 23:54 EDT    5.29   5.61    3  192    3  73.4  74.3 1015.4 -9.9 -9.999 -99.9 -99.99 -9.99
2019/08/19 00:00 EDT    5.50   5.81    2  208    4  73.4  74.3 1015.5 -9.9 -9.999 -99.9 -99.99 -9.99
2019/08/19 00:06 EDT    5.71   6.01    2  198    3  73.4  74.3 1015.5 -9.9 -9.999 -99.9 -99.99 -9.99
2019/08/19 00:12 EDT    5.91   6.20    2  185    3  73.4  74.3 1015.4 -9.9 -9.999 -99.9 -99.99 -9.99
2019/08/19 00:18 EDT    6.10   6.39    2  194    2  73.4  74.1 1015.4 -9.9 -9.999 -99.9 -99.99 -9.99
2019/08/19 00:24 EDT    6.28   6.57    3  182    3  73.6  74.1 1015.4 -9.9 -9.999 -99.9 -99.99 -9.99
2019/08/19 00:30 EDT    6.45   6.74    5  174    6  73.4  74.1 1015.2 -9.9 -9.999 -99.9 -99.99 -9.99
2019/08/19 00:36 EDT    6.60   6.90    4  183    6  73.9  74.1 1015.4 -9.9 -9.999 -99.9 -99.99 -9.99
2019/08/19 00:42 EDT    6.74   7.05    3  202    4  73.9  74.1 1015.4 -9.9 -9.999 -99.9 -99.99 -9.99
2019/08/19 00:48 EDT    6.87   7.19    4  197    4  73.4  74.1 1015.3 -9.9 -9.999 -99.9 -99.99 -9.99
2019/08/19 00:54 EDT    6.98   7.30    3  179    4  73.6  74.1 1015.2 -9.9 -9.999 -99.9 -99.99 -9.99
2019/08/19 01:00 EDT    7.08   7.42    4  175    5  73.6  74.1 1015.0 -9.9 -9.999 -99.9 -99.99 -9.99
2019/08/19 01:06 EDT    7.17   7.52    4  174    6  73.9  74.1 1014.8 -9.9 -9.999 -99.9 -99.99 -9.99
2019/08/19 01:12 EDT    7.25   7.60    2  167    5  74.1  74.1 1014.8 -9.9 -9.999 -99.9 -99.99 -9.99
2019/08/19 01:18 EDT    7.31   7.67    1  205    2  74.7  74.1 1014.7 -9.9 -9.999 -99.9 -99.99 -9.99
2019/08/19 01:24 EDT    7.36   7.72    1  236    2  74.5  74.1 1014.6 -9.9 -9.999 -99.9 -99.99 -9.99
2019/08/19 01:30 EDT    7.40   7.77    2  327    4  74.5  74.1 1014.8 -9.9 -9.999 -99.9 -99.99 -9.99
2019/08/19 01:36 EDT    7.44   7.81    4  314    4  74.5  74.1 1015.0 -9.9 -9.999 -99.9 -99.99 -9.99
2019/08/19 01:42 EDT    7.46   7.83    2  303    4  73.6  74.1 1015.0 -9.9 -9.999 -99.9 -99.99 -9.99
2019/08/19 01:48 EDT    7.47   7.84    2  303    4  73.6  73.9 1015.0 -9.9 -9.999 -99.9 -99.99 -9.99
2019/08/19 01:54 EDT    7.48   7.84    1  339    3  73.8  73.9 1015.0 -9.9 -9.999 -99.9 -99.99 -9.99
2019/08/19 02:00 EDT    7.48   7.84    0  112    1  73.9  73.9 1015.0 -9.9 -9.999 -99.9 -99.99 -9.99
2019/08/19 02:06 EDT    7.48   7.85    1   93    1  73.6  73.9 1015.0 -9.9 -9.999 -99.9 -99.99 -9.99
2019/08/19 02:12 EDT    7.47   7.85    1   93    1  73.4  73.9 1014.8 -9.9 -9.999 -99.9 -99.99 -9.99
2019/08/19 02:18 EDT    7.46   7.87    3  186    3  73.4  73.9 1014.8 -9.9 -9.999 -99.9 -99.99 -9.99
2019/08/19 02:24 EDT    7.44   7.88    4  179    5  73.4  73.9 1014.7 -9.9 -9.999 -99.9 -99.99 -9.99
2019/08/19 02:30 EDT    7.41   7.89    4  173    5  73.9  73.9 1014.6 -9.9 -9.999 -99.9 -99.99 -9.99
2019/08/19 02:36 EDT    7.39   7.91    3  195    5  74.1  73.9 1014.5 -9.9 -9.999 -99.9 -99.99 -9.99
2019/08/19 02:42 EDT    7.36   7.93    3  189    4  73.9  73.9 1014.6 -9.9 -9.999 -99.9 -99.99 -9.99
2019/08/19 02:48 EDT    7.33   7.94    2  183    3  73.9  73.9 1014.6 -9.9 -9.999 -99.9 -99.99 -9.99
2019/08/19 02:54 EDT    7.29   7.95    0  138    2  73.9  73.9 1014.5 -9.9 -9.999 -99.9 -99.99 -9.99
2019/08/19 03:00 EDT    7.25   7.95    1   49    2  73.9  73.9 1014.6 -9.9 -9.999 -99.9 -99.99 -9.99
2019/08/19 03:06 EDT    7.20   7.93    2   29    2  73.8  73.9 1014.5 -9.9 -9.999 -99.9 -99.99 -9.99
2019/08/19 03:12 EDT    7.15   7.91    0  266    2  73.6  73.9 1014.5 -9.9 -9.999 -99.9 -99.99 -9.99
2019/08/19 03:18 EDT    7.10   7.88    2  227    3  73.6  73.9 1014.5 -9.9 -9.999 -99.9 -99.99 -9.99
2019/08/19 03:24 EDT    7.04   7.83    1  225    3  73.4  73.9 1014.5 -9.9 -9.999 -99.9 -99.99 -9.99
2019/08/19 03:30 EDT    6.98   7.78    0  231    1  73.4  73.9 1014.6 -9.9 -9.999 -99.9 -99.99 -9.99
2019/08/19 03:36 EDT    6.90   7.73    1  300    1  73.4  73.9 1014.7 -9.9 -9.999 -99.9 -99.99 -9.99
2019/08/19 03:42 EDT    6.83   7.65    2   17    3  73.4  73.9 1015.0 -9.9 -9.999 -99.9 -99.99 -9.99
2019/08/19 03:48 EDT    6.74   7.58    3  340    3  73.4  73.9 1015.1 -9.9 -9.999 -99.9 -99.99 -9.99
2019/08/19 03:54 EDT    6.65   7.49    2  346    3  73.4  73.9 1015.3 -9.9 -9.999 -99.9 -99.99 -9.99
2019/08/19 04:00 EDT    6.54   7.39    0  346    2  73.8  73.9 1015.5 -9.9 -9.999 -99.9 -99.99 -9.99
2019/08/19 04:06 EDT    6.43   7.28    0  303    0  73.8  73.9 1015.5 -9.9 -9.999 -99.9 -99.99 -9.99
2019/08/19 04:12 EDT    6.32   7.15    0  228    1  73.8  73.9 1015.5 -9.9 -9.999 -99.9 -99.99 -9.99
2019/08/19 04:18 EDT    6.19   7.01    0  230    0  73.6  73.9 1015.6 -9.9 -9.999 -99.9 -99.99 -9.99
2019/08/19 04:24 EDT    6.05   6.86    0  166    1  73.6  73.9 1015.7 -9.9 -9.999 -99.9 -99.99 -9.99
2019/08/19 04:30 EDT    5.90   6.69    2   55    3  73.6  73.9 1015.7 -9.9 -9.999 -99.9 -99.99 -9.99
2019/08/19 04:36 EDT    5.75   6.52    2   75    3  73.6  73.9 1015.7 -9.9 -9.999 -99.9 -99.99 -9.99
2019/08/19 04:42 EDT    5.58   6.34    1   93    3  73.8  73.9 1015.7 -9.9 -9.999 -99.9 -99.99 -9.99
2019/08/19 04:48 EDT    5.41   6.16    3   67    3  73.6  73.9 1015.7 -9.9 -9.999 -99.9 -99.99 -9.99
2019/08/19 04:54 EDT    5.23   5.96    2  107    3  73.4  73.8 1015.7 -9.9 -9.999 -99.9 -99.99 -9.99
2019/08/19 05:00 EDT    5.04   5.76    3  100    3  73.2  73.8 1015.8 -9.9 -9.999 -99.9 -99.99 -9.99
2019/08/19 05:06 EDT    4.85   5.56    3  100    3  73.0  73.8 1015.7 -9.9 -9.999 -99.9 -99.99 -9.99
2019/08/19 05:12 EDT    4.64   5.36    2  110    3  72.9  73.8 1015.8 -9.9 -9.999 -99.9 -99.99 -9.99
2019/08/19 05:18 EDT    4.44   5.16    3  108    4  72.5  73.8 1015.8 -9.9 -9.999 -99.9 -99.99 -9.99
2019/08/19 05:24 EDT    4.23   4.95    2  120    4  72.5  73.8 1015.8 -9.9 -9.999 -99.9 -99.99 -9.99
2019/08/19 05:30 EDT    4.01   4.74    2   94    4  72.5  73.8 1015.8 -9.9 -9.999 -99.9 -99.99 -9.99
2019/08/19 05:36 EDT    3.79   4.52    2  103    3  72.5  73.8 1015.9 -9.9 -9.999 -99.9 -99.99 -9.99
2019/08/19 05:42 EDT    3.57   4.31    2  110    3  72.3  73.8 1016.0 -9.9 -9.999 -99.9 -99.99 -9.99
2019/08/19 05:48 EDT    3.35   4.10    2   93    3  72.3  73.8 1016.1 -9.9 -9.999 -99.9 -99.99 -9.99
2019/08/19 05:54 EDT    3.13   3.89    1   87    3  72.3  73.8 1016.1 -9.9 -9.999 -99.9 -99.99 -9.99
2019/08/19 06:00 EDT    2.92   3.69    3  108    3  72.3  73.8 1016.1 -9.9 -9.999 -99.9 -99.99 -9.99
2019/08/19 06:06 EDT    2.71   3.48    2  112    2  72.1  73.8 1016.1 -9.9 -9.999 -99.9 -99.99 -9.99
2019/08/19 06:12 EDT    2.50   3.29    1   94    3  72.1  73.8 1016.2 -9.9 -9.999 -99.9 -99.99 -9.99
2019/08/19 06:18 EDT    2.30   3.10    2  123    3  72.0  73.8 1016.4 -9.9 -9.999 -99.9 -99.99 -9.99
2019/08/19 06:24 EDT    2.10   2.91    1  125    2  71.8  73.8 1016.4 -9.9 -9.999 -99.9 -99.99 -9.99
2019/08/19 06:30 EDT    1.91   2.73    1  171    2  72.0  73.8 1016.4 -9.9 -9.999 -99.9 -99.99 -9.99
2019/08/19 06:36 EDT    1.74   2.55    1  159    2  72.0  73.8 1016.4 -9.9 -9.999 -99.9 -99.99 -9.99
2019/08/19 06:42 EDT    1.57   2.38    3  133    4  72.0  73.8 1016.4 -9.9 -9.999 -99.9 -99.99 -9.99
2019/08/19 06:48 EDT    1.41   2.22    0  325    2  72.3  73.8 1016.4 -9.9 -9.999 -99.9 -99.99 -9.99
2019/08/19 06:54 EDT    1.27   2.07    0  325    2  72.9  73.8 1016.3 -9.9 -9.999 -99.9 -99.99 -9.99
2019/08/19 07:00 EDT    1.13   1.92    0  342    0  73.2  73.8 1016.3 -9.9 -9.999 -99.9 -99.99 -9.99
2019/08/19 07:06 EDT    1.01   1.79    1  138    1  73.9  73.8 1016.3 -9.9 -9.999 -99.9 -99.99 -9.99
2019/08/19 07:12 EDT    0.90   1.67    1  138    1  74.7  73.8 1016.3 -9.9 -9.999 -99.9 -99.99 -9.99
2019/08/19 07:18 EDT    0.80   1.56    0   66    1  75.4  73.8 1016.3 -9.9 -9.999 -99.9 -99.99 -9.99
2019/08/19 07:24 EDT    0.72   1.47    0   66    1  75.7  73.8 1016.3 -9.9 -9.999 -99.9 -99.99 -9.99
2019/08/19 07:30 EDT    0.65   1.40    1   66    1  74.8  73.8 1016.3 -9.9 -9.999 -99.9 -99.99 -9.99
2019/08/19 07:36 EDT    0.59   1.34    0  211    1  74.7  73.8 1016.2 -9.9 -9.999 -99.9 -99.99 -9.99
2019/08/19 07:42 EDT    0.54   1.30    0  185    0  75.0  73.8 1016.1 -9.9 -9.999 -99.9 -99.99 -9.99
2019/08/19 07:48 EDT    0.51   1.27    0  185    0  75.0  73.8 1016.1 -9.9 -9.999 -99.9 -99.99 -9.99
2019/08/19 07:54 EDT    0.48   1.24    1  297    1  74.7  73.8 1016.2 -9.9 -9.999 -99.9 -99.99 -9.99
2019/08/19 08:00 EDT    0.46   1.24    0  297    1  75.4  73.8 1016.1 -9.9 -9.999 -99.9 -99.99 -9.99
2019/08/19 08:06 EDT    0.46   1.23    0  298    0  75.2  73.8 1016.1 -9.9 -9.999 -99.9 -99.99 -9.99
2019/08/19 08:12 EDT    0.46   1.23    0  298    1  75.4  73.9 1016.0 -9.9 -9.999 -99.9 -99.99 -9.99
2019/08/19 08:18 EDT    0.47   1.22    0  298    1  75.6  73.9 1016.1 -9.9 -9.999 -99.9 -99.99 -9.99
2019/08/19 08:24 EDT    0.48   1.22    1  298    1  75.4  73.9 1016.1 -9.9 -9.999 -99.9 -99.99 -9.99
2019/08/19 08:30 EDT    0.50   1.21    1  335    2  75.2  73.9 1016.0 -9.9 -9.999 -99.9 -99.99 -9.99
2019/08/19 08:36 EDT    0.53   1.20    1   15    2  74.8  73.9 1016.0 -9.9 -9.999 -99.9 -99.99 -9.99
2019/08/19 08:42 EDT    0.56   1.19    2   34    2  74.8  74.1 1015.9 -9.9 -9.999 -99.9 -99.99 -9.99
2019/08/19 08:48 EDT    0.59   1.18    3   18    3  74.5  74.1 1015.9 -9.9 -9.999 -99.9 -99.99 -9.99
2019/08/19 08:54 EDT    0.63   1.17    4   38    4  74.3  74.1 1015.9 -9.9 -9.999 -99.9 -99.99 -9.99
2019/08/19 09:00 EDT    0.67   1.16    3   35    4  74.3  74.1 1015.9 -9.9 -9.999 -99.9 -99.99 -9.99
2019/08/19 09:06 EDT    0.71   1.15    3   35    4  74.5  74.1 1015.9 -9.9 -9.999 -99.9 -99.99 -9.99
2019/08/19 09:12 EDT    0.76   1.15    3   64    4  75.4  74.3 1015.9 -9.9 -9.999 -99.9 -99.99 -9.99
2019/08/19 09:18 EDT    0.81   1.14    1   55    3  75.4  74.3 1015.9 -9.9 -9.999 -99.9 -99.99 -9.99
2019/08/19 09:24 EDT    0.86   1.13    2   39    3  76.3  74.3 1016.0 -9.9 -9.999 -99.9 -99.99 -9.99
2019/08/19 09:30 EDT    0.91   1.14    2   28    2  76.3  74.3 1016.0 -9.9 -9.999 -99.9 -99.99 -9.99
2019/08/19 09:36 EDT    0.97   1.15    1   61    2  76.8  74.3 1016.0 -9.9 -9.999 -99.9 -99.99 -9.99
2019/08/19 09:42 EDT    1.04   1.17    1  162    1  79.2  74.5 1015.9 -9.9 -9.999 -99.9 -99.99 -9.99
2019/08/19 09:48 EDT    1.11   1.19    1  162    1  79.2  74.5 1015.9 -9.9 -9.999 -99.9 -99.99 -9.99
2019/08/19 09:54 EDT    1.18   1.24    1  313    2  80.1  74.5 1016.0 -9.9 -9.999 -99.9 -99.99 -9.99
2019/08/19 10:00 EDT    1.27   1.30    1  313    2  79.5  74.5 1016.0 -9.9 -9.999 -99.9 -99.99 -9.99
2019/08/19 10:06 EDT    1.36   1.36    1  311    2  80.1  74.5 1015.9 -9.9 -9.999 -99.9 -99.99 -9.99
2019/08/19 10:12 EDT    1.45   1.45    2  243    3  79.5  74.5 1015.9 -9.9 -9.999 -99.9 -99.99 -9.99
2019/08/19 10:18 EDT    1.56   1.55    1  272    3  79.7  74.5 1016.0 -9.9 -9.999 -99.9 -99.99 -9.99
2019/08/19 10:24 EDT    1.68   1.66    0  246    1  79.7  74.5 1016.0 -9.9 -9.999 -99.9 -99.99 -9.99
2019/08/19 10:30 EDT    1.81   1.80    0  252    1  80.4  74.3 1015.9 -9.9 -9.999 -99.9 -99.99 -9.99
2019/08/19 10:36 EDT    1.94   1.95    0  252    1  81.0  74.3 1016.0 -9.9 -9.999 -99.9 -99.99 -9.99
2019/08/19 10:42 EDT    2.09   2.13    0  351    2  80.1  74.3 1015.9 -9.9 -9.999 -99.9 -99.99 -9.99
2019/08/19 10:48 EDT    2.25   2.31    1  233    1  80.4  74.3 1016.0 -9.9 -9.999 -99.9 -99.99 -9.99
2019/08/19 10:54 EDT    2.43   2.51    2  315    3  80.8  74.1 1016.0 -9.9 -9.999 -99.9 -99.99 -9.99
2019/08/19 11:00 EDT    2.61   2.73    2  329    2  80.8  74.1 1016.0 -9.9 -9.999 -99.9 -99.99 -9.99
2019/08/19 11:06 EDT    2.80   2.95    2  329    2  80.8  74.1 1016.0 -9.9 -9.999 -99.9 -99.99 -9.99
2019/08/19 11:12 EDT    3.00   3.19    1  289    2  81.3  74.1 1016.0 -9.9 -9.999 -99.9 -99.99 -9.99
2019/08/19 11:18 EDT    3.21   3.43    2  273    3  81.5  74.1 1016.0 -9.9 -9.999 -99.9 -99.99 -9.99
2019/08/19 11:24 EDT    3.43   3.68    2  223    3  81.9  74.1 1015.9 -9.9 -9.999 -99.9 -99.99 -9.99
2019/08/19 11:30 EDT    3.66   3.93    2  223    3  81.9  74.1 1015.8 -9.9 -9.999 -99.9 -99.99 -9.99
2019/08/19 11:36 EDT    3.89   4.20    3  268    4  81.9  74.1 1015.9 -9.9 -9.999 -99.9 -99.99 -9.99
2019/08/19 11:42 EDT    4.12   4.46    5  302    5  81.7  74.1 1015.9 -9.9 -9.999 -99.9 -99.99 -9.99
2019/08/19 11:48 EDT    4.36   4.72    5  313    6  81.7  74.1 1015.9 -9.9 -9.999 -99.9 -99.99 -9.99
2019/08/19 11:54 EDT    4.59   4.97    5  313    6  82.0  74.1 1015.9 -9.9 -9.999 -99.9 -99.99 -9.99
2019/08/19 12:00 EDT    4.83   5.23    5  313    7  82.2  74.1 1015.8 -9.9 -9.999 -99.9 -99.99 -9.99
2019/08/19 12:06 EDT    5.06   5.47    3  315    5  82.9  74.1 1015.7 -9.9 -9.999 -99.9 -99.99 -9.99
2019/08/19 12:12 EDT    5.29   5.71    2  323    3  83.3  74.1 1015.7 -9.9 -9.999 -99.9 -99.99 -9.99
2019/08/19 12:18 EDT    5.52   5.95    2  312    3  83.8  74.1 1015.7 -9.9 -9.999 -99.9 -99.99 -9.99
2019/08/19 12:24 EDT    5.74   6.18    2  325    3  84.0  74.1 1015.7 -9.9 -9.999 -99.9 -99.99 -9.99
2019/08/19 12:30 EDT    5.94   6.39    0  254    2  84.9  74.1 1015.6 -9.9 -9.999 -99.9 -99.99 -9.99
2019/08/19 12:36 EDT    6.14   6.59    0  258    1  86.0  74.1 1015.7 -9.9 -9.999 -99.9 -99.99 -9.99
2019/08/19 12:42 EDT    6.33   6.79    1  234    2  85.5  74.1 1015.7 -9.9 -9.999 -99.9 -99.99 -9.99
2019/08/19 12:48 EDT    6.50   6.97    3  312    4  85.5  74.1 1015.7 -9.9 -9.999 -99.9 -99.99 -9.99
2019/08/19 12:54 EDT    6.67   7.12    9  270   12  85.3  74.1 1015.6 -9.9 -9.999 -99.9 -99.99 -9.99
2019/08/19 13:00 EDT    6.82   7.23   13  276   15  85.1  74.1 1015.5 -9.9 -9.999 -99.9 -99.99 -9.99
2019/08/19 13:06 EDT    6.95   7.38   12  284   15  85.3  74.1 1015.5 -9.9 -9.999 -99.9 -99.99 -9.99
2019/08/19 13:12 EDT    7.07   7.50   12  271   15  85.5  74.1 1015.4 -9.9 -9.999 -99.9 -99.99 -9.99
2019/08/19 13:18 EDT    7.18   7.60    9  279   12  84.9  74.1 1015.4 -9.9 -9.999 -99.9 -99.99 -9.99
2019/08/19 13:24 EDT    7.28   7.69   10  272   12  85.3  74.1 1015.4 -9.9 -9.999 -99.9 -99.99 -9.99
2019/08/19 13:30 EDT    7.36   7.77    8  275   12  85.8  74.1 1015.3 -9.9 -9.999 -99.9 -99.99 -9.99
2019/08/19 13:36 EDT    7.43   7.83    8  268   11  84.6  74.3 1015.3 -9.9 -9.999 -99.9 -99.99 -9.99
2019/08/19 13:42 EDT    7.48   7.87   10  285   12  86.2  74.3 1015.2 -9.9 -9.999 -99.9 -99.99 -9.99
2019/08/19 13:48 EDT    7.53   7.92    7  296   11  84.9  74.3 1015.3 -9.9 -9.999 -99.9 -99.99 -9.99
2019/08/19 13:54 EDT    7.56   7.95    9  291   11  86.0  74.3 1015.2 -9.9 -9.999 -99.9 -99.99 -9.99
2019/08/19 14:00 EDT    7.59   7.98    7  254   10  86.2  74.1 1015.1 -9.9 -9.999 -99.9 -99.99 -9.99
2019/08/19 14:06 EDT    7.60   8.00    9  280   10  86.2  74.1 1015.1 -9.9 -9.999 -99.9 -99.99 -9.99
2019/08/19 14:12 EDT    7.61   8.00    6  254   10  86.9  74.1 1015.0 -9.9 -9.999 -99.9 -99.99 -9.99
2019/08/19 14:18 EDT    7.61   8.02    6  232    9  85.3  74.1 1014.8 -9.9 -9.999 -99.9 -99.99 -9.99
2019/08/19 14:24 EDT    7.60   8.04    5  195   10  86.0  74.1 1014.7 -9.9 -9.999 -99.9 -99.99 -9.99
2019/08/19 14:30 EDT    7.59   8.07    5  213    8  86.2  74.1 1014.6 -9.9 -9.999 -99.9 -99.99 -9.99
2019/08/19 14:36 EDT    7.57   8.09    3  236    6  85.5  74.1 1014.6 -9.9 -9.999 -99.9 -99.99 -9.99
2019/08/19 14:42 EDT    7.55   8.10    8  212   10  84.9  74.1 1014.5 -9.9 -9.999 -99.9 -99.99 -9.99
2019/08/19 14:48 EDT    7.52   8.11   12  202   14  84.2  74.1 1014.4 -9.9 -9.999 -99.9 -99.99 -9.99
2019/08/19 14:54 EDT    7.49   8.13   11  209   15  84.0  74.1 1014.3 -9.9 -9.999 -99.9 -99.99 -9.99
2019/08/19 15:00 EDT    7.46   8.14   14  210   17  84.2  74.1 1014.3 -9.9 -9.999 -99.9 -99.99 -9.99
2019/08/19 15:06 EDT    7.42   8.16   11  217   15  84.4  74.1 1014.1 -9.9 -9.999 -99.9 -99.99 -9.99
2019/08/19 15:12 EDT    7.38   8.17   14  211   15  84.0  74.1 1014.1 -9.9 -9.999 -99.9 -99.99 -9.99
2019/08/19 15:18 EDT    7.34   8.17   11  216   14  83.7  74.1 1014.2 -9.9 -9.999 -99.9 -99.99 -9.99
2019/08/19 15:24 EDT    7.30   8.16   13  216   15  84.4  74.1 1014.1 -9.9 -9.999 -99.9 -99.99 -9.99
2019/08/19 15:30 EDT    7.25   8.15   13  212   14  83.7  74.1 1014.1 -9.9 -9.999 -99.9 -99.99 -9.99
2019/08/19 15:36 EDT    7.19   8.14   16  207   17  84.2  74.1 1014.1 -9.9 -9.999 -99.9 -99.99 -9.99
2019/08/19 15:42 EDT    7.14   8.10   14  213   16  82.2  74.1 1014.1 -9.9 -9.999 -99.9 -99.99 -9.99
2019/08/19 15:48 EDT    7.07   8.07   15  215   17  82.2  74.1 1014.0 -9.9 -9.999 -99.9 -99.99 -9.99
2019/08/19 15:54 EDT    7.01   8.02   17  213   19  82.0  73.9 1013.7 -9.9 -9.999 -99.9 -99.99 -9.99
2019/08/19 16:00 EDT    6.93   7.96   18  213   19  82.2  73.9 1013.6 -9.9 -9.999 -99.9 -99.99 -9.99
2019/08/19 16:06 EDT    6.85   7.89   17  214   18  81.9  73.9 1013.4 -9.9 -9.999 -99.9 -99.99 -9.99
2019/08/19 16:12 EDT    6.77   7.80   17  214   19  81.3  74.1 1013.3 -9.9 -9.999 -99.9 -99.99 -9.99
2019/08/19 16:18 EDT    6.68   7.70   19  212   21  81.7  74.5 1013.4 -9.9 -9.999 -99.9 -99.99 -9.99
2019/08/19 16:24 EDT    6.58   7.60   16  211   20  81.5  74.8 1013.8 -9.9 -9.999 -99.9 -99.99 -9.99
2019/08/19 16:30 EDT    6.47   7.49   15  208   19  81.3  74.8 1013.8 -9.9 -9.999 -99.9 -99.99 -9.99
2019/08/19 16:36 EDT    6.35   7.36   18  210   22  80.8  75.0 1014.0 -9.9 -9.999 -99.9 -99.99 -9.99
2019/08/19 16:42 EDT    6.23   7.24    4  137   18  81.5  75.2 1014.3 -9.9 -9.999 -99.9 -99.99 -9.99
2019/08/19 16:48 EDT    6.09   7.12    4  104    8  80.6  75.0 1014.2 -9.9 -9.999 -99.9 -99.99 -9.99
2019/08/19 16:54 EDT    5.95   6.99    9   69   14  79.0  75.0 1014.4 -9.9 -9.999 -99.9 -99.99 -9.99
2019/08/19 17:00 EDT    5.80   6.80   20   32   22  74.3  75.2 1015.3 -9.9 -9.999 -99.9 -99.99 -9.99
2019/08/19 17:06 EDT    5.64   6.55   14   32   21  73.6  75.0 1015.6 -9.9 -9.999 -99.9 -99.99 -9.99
2019/08/19 17:12 EDT    5.47   6.26    3  146   11  73.0  75.0 1015.3 -9.9 -9.999 -99.9 -99.99 -9.99
2019/08/19 17:18 EDT    5.30   6.05    6  108   12  73.9  75.0 1015.2 -9.9 -9.999 -99.9 -99.99 -9.99
2019/08/19 17:24 EDT    5.12   5.83    5  115   11  75.6  74.8 1015.1 -9.9 -9.999 -99.9 -99.99 -9.99
2019/08/19 17:30 EDT    4.93   5.57    6  172   11  75.7  74.8 1015.3 -9.9 -9.999 -99.9 -99.99 -9.99
2019/08/19 17:36 EDT    4.73   5.29   12  193   15  75.6  74.8 1015.3 -9.9 -9.999 -99.9 -99.99 -9.99
2019/08/19 17:42 EDT    4.53   5.06   10  173   15  75.9  75.0 1015.3 -9.9 -9.999 -99.9 -99.99 -9.99
2019/08/19 17:48 EDT    4.33   4.84    8  178   13  76.5  75.0 1015.1 -9.9 -9.999 -99.9 -99.99 -9.99
2019/08/19 17:54 EDT    4.12   4.60    8  177   11  77.0  75.0 1015.2 -9.9 -9.999 -99.9 -99.99 -9.99
2019/08/19 18:00 EDT    3.91   4.37    8  189   11  77.9  74.8 1015.3 -9.9 -9.999 -99.9 -99.99 -9.99
2019/08/19 18:06 EDT    3.70   4.13   10  198   11  78.8  74.8 1015.4 -9.9 -9.999 -99.9 -99.99 -9.99
2019/08/19 18:12 EDT    3.48   3.88   10  200   11  79.0  74.8 1015.4 -9.9 -9.999 -99.9 -99.99 -9.99
2019/08/19 18:18 EDT    3.27   3.66   13  202   15  80.2  74.8 1015.4 -9.9 -9.999 -99.9 -99.99 -9.99
2019/08/19 18:24 EDT    3.06   3.42   12  214   15  80.2  74.7 1015.4 -9.9 -9.999 -99.9 -99.99 -9.99
2019/08/19 18:30 EDT    2.86   3.21   12  218   13  80.4  74.7 1015.3 -9.9 -9.999 -99.9 -99.99 -9.99
2019/08/19 18:36 EDT    2.66   3.02   13  217   15  80.8  74.5 1015.3 -9.9 -9.999 -99.9 -99.99 -9.99
2019/08/19 18:42 EDT    2.46   2.83   11  215   16  80.4  74.7 1015.3 -9.9 -9.999 -99.9 -99.99 -9.99
2019/08/19 18:48 EDT    2.27   2.65   11  211   12  80.4  74.8 1015.2 -9.9 -9.999 -99.9 -99.99 -9.99
2019/08/19 18:54 EDT    2.09   2.45   12  210   15  80.2  75.0 1015.3 -9.9 -9.999 -99.9 -99.99 -9.99
2019/08/19 19:00 EDT    1.92   2.30   13  216   15  80.2  75.0 1015.3 -9.9 -9.999 -99.9 -99.99 -9.99
2019/08/19 19:06 EDT    1.76   2.14   12  229   15  80.4  75.4 1015.4 -9.9 -9.999 -99.9 -99.99 -9.99
2019/08/19 19:12 EDT    1.60   1.99   11  226   16  80.1  75.4 1015.5 -9.9 -9.999 -99.9 -99.99 -9.99
2019/08/19 19:18 EDT    1.46   1.86    9  228   12  79.7  75.2 1015.6 -9.9 -9.999 -99.9 -99.99 -9.99
2019/08/19 19:24 EDT    1.33   1.74    9  242   12  80.6  75.2 1015.6 -9.9 -9.999 -99.9 -99.99 -9.99
2019/08/19 19:30 EDT    1.22   1.64   11  244   14  80.2  75.4 1015.5 -9.9 -9.999 -99.9 -99.99 -9.99
2019/08/19 19:36 EDT    1.11   1.56    7  246   11  80.1  75.4 1015.5 -9.9 -9.999 -99.9 -99.99 -9.99
2019/08/19 19:42 EDT    1.02   1.49    7  234    9  79.9  75.6 1015.5 -9.9 -9.999 -99.9 -99.99 -9.99
2019/08/19 19:48 EDT    0.94   1.43    7  234    9  78.8  75.7 1015.5 -9.9 -9.999 -99.9 -99.99 -9.99
2019/08/19 19:54 EDT    0.87   1.39    8  223    9  78.6  75.7 1015.4 -9.9 -9.999 -99.9 -99.99 -9.99
2019/08/19 20:00 EDT    0.81   1.34    6  251    9  79.0  75.9 1015.3 -9.9 -9.999 -99.9 -99.99 -9.99
2019/08/19 20:06 EDT    0.77   1.30    6  241    7  78.8  75.9 1015.4 -9.9 -9.999 -99.9 -99.99 -9.99
2019/08/19 20:12 EDT    0.73   1.30    5  239    7  78.6  75.9 1015.3 -9.9 -9.999 -99.9 -99.99 -9.99
2019/08/19 20:18 EDT    0.71   1.30    5  241    7  78.6  75.9 1015.4 -9.9 -9.999 -99.9 -99.99 -9.99
2019/08/19 20:24 EDT    0.69   1.29    5  228    7  78.8  75.9 1015.4 -9.9 -9.999 -99.9 -99.99 -9.99
2019/08/19 20:30 EDT    0.69   1.29    7  222    8  79.2  75.9 1015.4 -9.9 -9.999 -99.9 -99.99 -9.99
2019/08/19 20:36 EDT    0.69   1.28    7  199    9  78.6  76.1 1015.6 -9.9 -9.999 -99.9 -99.99 -9.99
2019/08/19 20:42 EDT    0.70   1.25    7  208    9  78.6  76.1 1015.6 -9.9 -9.999 -99.9 -99.99 -9.99
2019/08/19 20:48 EDT    0.71   1.25    6  221    7  79.0  76.3 1015.7 -9.9 -9.999 -99.9 -99.99 -9.99
2019/08/19 20:54 EDT    0.73   1.25    4  231    6  79.5  76.3 1015.7 -9.9 -9.999 -99.9 -99.99 -9.99
2019/08/19 21:00 EDT    0.76   1.27    4  218    5  79.3  76.3 1015.7 -9.9 -9.999 -99.9 -99.99 -9.99
2019/08/19 21:06 EDT    0.79   1.28    4  218    5  79.2  76.3 1015.8 -9.9 -9.999 -99.9 -99.99 -9.99
2019/08/19 21:12 EDT    0.82   1.27    4  210    5  78.8  76.3 1015.8 -9.9 -9.999 -99.9 -99.99 -9.99
2019/08/19 21:18 EDT    0.85   1.26    4  196    5  78.8  76.3 1015.9 -9.9 -9.999 -99.9 -99.99 -9.99
2019/08/19 21:24 EDT    0.89   1.25    4  192    5  78.8  76.3 1016.0 -9.9 -9.999 -99.9 -99.99 -9.99
2019/08/19 21:30 EDT    0.93   1.23    3  189    4  78.8  76.3 1016.1 -9.9 -9.999 -99.9 -99.99 -9.99
2019/08/19 21:36 EDT    0.97   1.21    2  197    4  78.8  76.3 1016.1 -9.9 -9.999 -99.9 -99.99 -9.99
2019/08/19 21:42 EDT    1.02   1.19    2  220    3  79.2  76.5 1016.1 -9.9 -9.999 -99.9 -99.99 -9.99
2019/08/19 21:48 EDT    1.07   1.18    2  202    3  79.0  76.5 1016.1 -9.9 -9.999 -99.9 -99.99 -9.99
2019/08/19 21:54 EDT    1.12   1.20    1  280    2  79.2  76.5 1016.2 -9.9 -9.999 -99.9 -99.99 -9.99
2019/08/19 22:00 EDT    1.17   1.23    1  349    3  78.3  76.5 1016.2 -9.9 -9.999 -99.9 -99.99 -9.99
2019/08/19 22:06 EDT    1.23   1.28    3   18    3  78.6  76.5 1016.3 -9.9 -9.999 -99.9 -99.99 -9.99
2019/08/19 22:12 EDT    1.29   1.35    3   14    4  79.0  76.5 1016.3 -9.9 -9.999 -99.9 -99.99 -9.99
2019/08/19 22:18 EDT    1.36   1.42    3  327    4  78.4  76.3 1016.4 -9.9 -9.999 -99.9 -99.99 -9.99
2019/08/19 22:24 EDT    1.44   1.50    3  349    4  77.5  75.9 1016.4 -9.9 -9.999 -99.9 -99.99 -9.99
2019/08/19 22:30 EDT    1.52   1.60    3    5    3  77.4  75.9 1016.4 -9.9 -9.999 -99.9 -99.99 -9.99
2019/08/19 22:36 EDT    1.61   1.72    2   13    3  77.4  75.9 1016.4 -9.9 -9.999 -99.9 -99.99 -9.99
2019/08/19 22:42 EDT    1.71   1.85    2  353    3  77.9  75.7 1016.4 -9.9 -9.999 -99.9 -99.99 -9.99
2019/08/19 22:48 EDT    1.81   1.98    2  323    3  78.6  75.4 1016.5 -9.9 -9.999 -99.9 -99.99 -9.99
2019/08/19 22:54 EDT    1.93   2.12    0  256    2  78.6  75.2 1016.5 -9.9 -9.999 -99.9 -99.99 -9.99
2019/08/19 23:00 EDT    2.06   2.27    1  270    2  78.1  75.0 1016.5 -9.9 -9.999 -99.9 -99.99 -9.99
2019/08/19 23:06 EDT    2.20   2.42    2  303    3  78.1  75.0 1016.5 -9.9 -9.999 -99.9 -99.99 -9.99
2019/08/19 23:12 EDT    2.35   2.58    0  301    2  78.3  75.0 1016.4 -9.9 -9.999 -99.9 -99.99 -9.99
2019/08/19 23:18 EDT    2.50   2.74    1  273    1  78.3  74.8 1016.4 -9.9 -9.999 -99.9 -99.99 -9.99
2019/08/19 23:24 EDT    2.67   2.91    1  209    1  78.3  74.8 1016.4 -9.9 -9.999 -99.9 -99.99 -9.99
2019/08/19 23:30 EDT    2.86   3.08    2  224    3  77.9  74.8 1016.5 -9.9 -9.999 -99.9 -99.99 -9.99
2019/08/19 23:36 EDT    3.04   3.25    3  219    3  77.9  74.8 1016.5 -9.9 -9.999 -99.9 -99.99 -9.99
2019/08/19 23:42 EDT    3.24   3.42    2  242    3  77.4  74.8 1016.5 -9.9 -9.999 -99.9 -99.99 -9.99
2019/08/19 23:48 EDT    3.45   3.62    2  199    3  76.5  74.8 1016.6 -9.9 -9.999 -99.9 -99.99 -9.99
2019/08/19 23:54 EDT    3.66   3.83    2  199    3  76.5  74.8 1016.5 -9.9 -9.999 -99.9 -99.99 -9.99
2019/08/20 00:00 EDT    3.88   4.03    4  200    4  75.9  74.8 1016.5 -9.9 -9.999 -99.9 -99.99 -9.99
2019/08/20 00:06 EDT    4.10   4.23    3  194    4  76.6  74.8 1016.5 -9.9 -9.999 -99.9 -99.99 -9.99
2019/08/20 00:12 EDT    4.33   4.42    3  194    4  76.8  74.8 1016.4 -9.9 -9.999 -99.9 -99.99 -9.99
2019/08/20 00:18 EDT    4.56   4.61    2  212    3  77.2  74.8 1016.5 -9.9 -9.999 -99.9 -99.99 -9.99
2019/08/20 00:24 EDT    4.78   4.79    2  221    3  77.4  74.8 1016.6 -9.9 -9.999 -99.9 -99.99 -9.99
2019/08/20 00:30 EDT    5.01   4.98    2  207    2  77.4  74.8 1016.6 -9.9 -9.999 -99.9 -99.99 -9.99
2019/08/20 00:36 EDT    5.23   5.16    2  202    3  77.2  74.8 1016.6 -9.9 -9.999 -99.9 -99.99 -9.99
2019/08/20 00:42 EDT    5.44   5.35    4  198    4  77.2  74.7 1016.6 -9.9 -9.999 -99.9 -99.99 -9.99
2019/08/20 00:48 EDT    5.65   5.54    2  198    4  77.2  74.7 1016.7 -9.9 -9.999 -99.9 -99.99 -9.99
2019/08/20 00:54 EDT    5.85   5.73    2  195    3  77.2  74.7 1016.7 -9.9 -9.999 -99.9 -99.99 -9.99
2019/08/20 01:00 EDT    6.03   5.93    2  195    3  77.0  74.7 1016.6 -9.9 -9.999 -99.9 -99.99 -9.99
2019/08/20 01:06 EDT    6.21   6.12    2  210    2  77.2  74.7 1016.6 -9.9 -9.999 -99.9 -99.99 -9.99
2019/08/20 01:12 EDT    6.38   6.30    3  209    3  77.0  74.7 1016.6 -9.9 -9.999 -99.9 -99.99 -9.99
2019/08/20 01:18 EDT    6.53   6.48    3  207    4  77.0  74.7 1016.7 -9.9 -9.999 -99.9 -99.99 -9.99
2019/08/20 01:24 EDT    6.67   6.66    3  188    4  76.3  74.7 1016.7 -9.9 -9.999 -99.9 -99.99 -9.99
2019/08/20 01:30 EDT    6.80   6.82    1  195    2  76.1  74.7 1016.8 -9.9 -9.999 -99.9 -99.99 -9.99
2019/08/20 01:36 EDT    6.92   6.97    1  198    1  76.1  74.7 1016.8 -9.9 -9.999 -99.9 -99.99 -9.99
2019/08/20 01:42 EDT    7.02   7.10    1  193    1  76.1  74.7 1016.8 -9.9 -9.999 -99.9 -99.99 -9.99
2019/08/20 01:48 EDT    7.10   7.22    1  193    1  75.9  74.7 1016.8 -9.9 -9.999 -99.9 -99.99 -9.99
2019/08/20 01:54 EDT    7.18   7.33    0  216    1  75.4  74.7 1016.8 -9.9 -9.999 -99.9 -99.99 -9.99
2019/08/20 02:00 EDT    7.24   7.42    1  206    1  75.4  74.7 1016.8 -9.9 -9.999 -99.9 -99.99 -9.99
2019/08/20 02:06 EDT    7.28   7.50    2  198    2  75.2  74.7 1016.9 -9.9 -9.999 -99.9 -99.99 -9.99
2019/08/20 02:12 EDT    7.32   7.57    2  207    2  75.2  74.7 1016.9 -9.9 -9.999 -99.9 -99.99 -9.99
2019/08/20 02:18 EDT    7.35   7.63    3  204    4  75.0  74.7 1016.9 -9.9 -9.999 -99.9 -99.99 -9.99
2019/08/20 02:24 EDT    7.36   7.67    3  203    4  75.6  74.7 1017.0 -9.9 -9.999 -99.9 -99.99 -9.99
2019/08/20 02:30 EDT    7.37   7.70    2  202    3  75.7  74.7 1017.0 -9.9 -9.999 -99.9 -99.99 -9.99
2019/08/20 02:36 EDT    7.37   7.71    1  203    2  75.9  74.7 1017.1 -9.9 -9.999 -99.9 -99.99 -9.99
2019/08/20 02:42 EDT    7.36   7.72    0  196    1  75.9  74.7 1017.1 -9.9 -9.999 -99.9 -99.99 -9.99
2019/08/20 02:48 EDT    7.34   7.71    0  193    1  75.7  74.7 1017.1 -9.9 -9.999 -99.9 -99.99 -9.99
2019/08/20 02:54 EDT    7.32   7.72    0  258    1  75.9  74.7 1017.1 -9.9 -9.999 -99.9 -99.99 -9.99
2019/08/20 03:00 EDT    7.29   7.71    1   45    1  75.9  74.7 1017.1 -9.9 -9.999 -99.9 -99.99 -9.99
2019/08/20 03:06 EDT    7.26   7.71    2   50    2  75.9  74.7 1017.1 -9.9 -9.999 -99.9 -99.99 -9.99
2019/08/20 03:12 EDT    7.23   7.70    1   74    2  75.7  74.7 1017.1 -9.9 -9.999 -99.9 -99.99 -9.99
2019/08/20 03:18 EDT    7.19   7.70    0   21    1  76.1  74.7 1017.2 -9.9 -9.999 -99.9 -99.99 -9.99
2019/08/20 03:24 EDT    7.15   7.69    0   23    1  76.5  74.7 1017.2 -9.9 -9.999 -99.9 -99.99 -9.99
2019/08/20 03:30 EDT    7.11   7.68    1   61    1  75.9  74.7 1017.1 -9.9 -9.999 -99.9 -99.99 -9.99
2019/08/20 03:36 EDT    7.06   7.66    0  170    1  75.6  74.7 1017.1 -9.9 -9.999 -99.9 -99.99 -9.99
2019/08/20 03:42 EDT    7.01   7.64    0  227    1  75.4  74.7 1017.2 -9.9 -9.999 -99.9 -99.99 -9.99
2019/08/20 03:48 EDT    6.95   7.61    0  227    0  75.0  74.7 1017.2 -9.9 -9.999 -99.9 -99.99 -9.99
2019/08/20 03:54 EDT    6.90   7.57    0  227    0  74.8  74.7 1017.3 -9.9 -9.999 -99.9 -99.99 -9.99
2019/08/20 04:00 EDT    6.84   7.53    0  228    0  75.0  74.5 1017.3 -9.9 -9.999 -99.9 -99.99 -9.99
2019/08/20 04:06 EDT    6.77   7.48    0  227    1  74.7  74.5 1017.5 -9.9 -9.999 -99.9 -99.99 -9.99
2019/08/20 04:12 EDT    6.70   7.44    2   39    2  74.7  74.5 1017.5 -9.9 -9.999 -99.9 -99.99 -9.99
2019/08/20 04:18 EDT    6.63   7.38    3   66    3  74.5  74.5 1017.6 -9.9 -9.999 -99.9 -99.99 -9.99
2019/08/20 04:24 EDT    6.55   7.32    4   77    5  74.7  74.5 1017.7 -9.9 -9.999 -99.9 -99.99 -9.99
2019/08/20 04:30 EDT    6.47   7.24    5   81    6  74.7  74.5 1017.8 -9.9 -9.999 -99.9 -99.99 -9.99
2019/08/20 04:36 EDT    6.38   7.17    4   85    7  75.0  74.5 1017.8 -9.9 -9.999 -99.9 -99.99 -9.99
2019/08/20 04:42 EDT    6.28   7.07    3   83    5  74.7  74.5 1017.9 -9.9 -9.999 -99.9 -99.99 -9.99
2019/08/20 04:48 EDT    6.17   6.96    3   77    6  74.5  74.5 1018.0 -9.9 -9.999 -99.9 -99.99 -9.99
2019/08/20 04:54 EDT    6.06   6.84    2   84    4  74.3  74.5 1018.0 -9.9 -9.999 -99.9 -99.99 -9.99
2019/08/20 05:00 EDT    5.94   6.71    3   95    5  74.1  74.3 1018.1 -9.9 -9.999 -99.9 -99.99 -9.99
2019/08/20 05:06 EDT    5.82   6.56    3   79    4  74.1  74.3 1018.1 -9.9 -9.999 -99.9 -99.99 -9.99
2019/08/20 05:12 EDT    5.68   6.41    2   75    4  74.3  74.5 1018.3 -9.9 -9.999 -99.9 -99.99 -9.99
2019/08/20 05:18 EDT    5.54   6.24    3   73    4  74.3  74.5 1018.4 -9.9 -9.999 -99.9 -99.99 -9.99
2019/08/20 05:24 EDT    5.38   6.06    4   63    7  74.3  74.5 1018.4 -9.9 -9.999 -99.9 -99.99 -9.99
2019/08/20 05:30 EDT    5.22   5.88    4   78    6  74.5  74.5 1018.5 -9.9 -9.999 -99.9 -99.99 -9.99
2019/08/20 05:36 EDT    5.06   5.68    3   74    5  74.5  74.5 1018.6 -9.9 -9.999 -99.9 -99.99 -9.99
2019/08/20 05:42 EDT    4.88   5.47    4   78    6  74.5  74.3 1018.7 -9.9 -9.999 -99.9 -99.99 -9.99
2019/08/20 05:48 EDT    4.70   5.25    4   74    7  74.5  74.3 1018.7 -9.9 -9.999 -99.9 -99.99 -9.99
2019/08/20 05:54 EDT    4.51   5.04    4   78    6  74.7  74.3 1018.8 -9.9 -9.999 -99.9 -99.99 -9.99
2019/08/20 06:00 EDT    4.32   4.81    4   67    6  74.7  74.3 1018.9 -9.9 -9.999 -99.9 -99.99 -9.99
2019/08/20 06:06 EDT    4.12   4.59    4   71    7  74.7  74.3 1019.1 -9.9 -9.999 -99.9 -99.99 -9.99
2019/08/20 06:12 EDT    3.92   4.37    4   74    6  74.7  74.3 1019.1 -9.9 -9.999 -99.9 -99.99 -9.99
2019/08/20 06:18 EDT    3.71   4.14    3   66    5  74.5  74.3 1019.2 -9.9 -9.999 -99.9 -99.99 -9.99
2019/08/20 06:24 EDT    3.50   3.92    4   72    5  74.5  74.3 1019.2 -9.9 -9.999 -99.9 -99.99 -9.99
2019/08/20 06:30 EDT    3.29   3.72    4   74    6  74.5  74.3 1019.2 -9.9 -9.999 -99.9 -99.99 -9.99
2019/08/20 06:36 EDT    3.09   3.52    3   77    4  74.5  74.3 1019.3 -9.9 -9.999 -99.9 -99.99 -9.99
2019/08/20 06:42 EDT    2.88   3.32    2  102    3  74.5  74.3 1019.5 -9.9 -9.999 -99.9 -99.99 -9.99
2019/08/20 06:48 EDT    2.68   3.11    2   76    4  74.3  74.3 1019.6 -9.9 -9.999 -99.9 -99.99 -9.99
2019/08/20 06:54 EDT    2.48   2.91    3   98    4  74.7  74.3 1019.7 -9.9 -9.999 -99.9 -99.99 -9.99
2019/08/20 07:00 EDT    2.28   2.74    3   90    3  74.8  74.3 1019.8 -9.9 -9.999 -99.9 -99.99 -9.99
2019/08/20 07:06 EDT    2.09   2.57    2   82    4  75.2  74.3 1019.8 -9.9 -9.999 -99.9 -99.99 -9.99
2019/08/20 07:12 EDT    1.91   2.40    2   59    3  75.7  74.3 1019.9 -9.9 -9.999 -99.9 -99.99 -9.99
2019/08/20 07:18 EDT    1.74   2.23    3   71    5  75.7  74.3 1019.9 -9.9 -9.999 -99.9 -99.99 -9.99
2019/08/20 07:24 EDT    1.57   2.07    2   67    4  75.7  74.3 1019.9 -9.9 -9.999 -99.9 -99.99 -9.99
2019/08/20 07:30 EDT    1.42   1.93    4   64    5  75.7  74.5 1020.0 -9.9 -9.999 -99.9 -99.99 -9.99
2019/08/20 07:36 EDT    1.27   1.79    5   63    6  75.7  74.5 1019.9 -9.9 -9.999 -99.9 -99.99 -9.99
2019/08/20 07:42 EDT    1.14   1.67    4   68    6  75.7  74.5 1020.0 -9.9 -9.999 -99.9 -99.99 -9.99
2019/08/20 07:48 EDT    1.02   1.55    4   65    6  75.9  74.5 1020.0 -9.9 -9.999 -99.9 -99.99 -9.99
2019/08/20 07:54 EDT    0.92   1.45    4   61    6  75.9  74.5 1020.0 -9.9 -9.999 -99.9 -99.99 -9.99
2019/08/20 08:00 EDT    0.83   1.36    5   62    7  75.7  74.5 1020.0 -9.9 -9.999 -99.9 -99.99 -9.99
2019/08/20 08:06 EDT    0.75   1.27    5   62    7  75.7  74.5 1020.0 -9.9 -9.999 -99.9 -99.99 -9.99
2019/08/20 08:12 EDT    0.68   1.20    5   61    7  75.7  74.5 1020.0 -9.9 -9.999 -99.9 -99.99 -9.99
2019/08/20 08:18 EDT    0.62   1.16    7   58    9  75.9  74.5 1019.9 -9.9 -9.999 -99.9 -99.99 -9.99
2019/08/20 08:24 EDT    0.58   1.12    6   65    9  75.9  74.5 1019.9 -9.9 -9.999 -99.9 -99.99 -9.99
2019/08/20 08:30 EDT    0.55   1.09    7   64    9  76.1  74.5 1019.9 -9.9 -9.999 -99.9 -99.99 -9.99
2019/08/20 08:36 EDT    0.53   1.05    5   54    8  75.9  74.5 1020.0 -9.9 -9.999 -99.9 -99.99 -9.99
2019/08/20 08:42 EDT    0.53   1.03    5   62    7  75.9  74.5 1020.0 -9.9 -9.999 -99.9 -99.99 -9.99
2019/08/20 08:48 EDT    0.53   1.01    6   49    8  75.7  74.5 1020.1 -9.9 -9.999 -99.9 -99.99 -9.99
2019/08/20 08:54 EDT    0.54   0.99    6   49    8  75.7  74.5 1020.1 -9.9 -9.999 -99.9 -99.99 -9.99
2019/08/20 09:00 EDT    0.56   0.97    6   48    8  75.4  74.7 1020.1 -9.9 -9.999 -99.9 -99.99 -9.99
2019/08/20 09:06 EDT    0.59   0.96    6   48    8  75.4  74.7 1020.1 -9.9 -9.999 -99.9 -99.99 -9.99
2019/08/20 09:12 EDT    0.62   0.95    5   49    8  75.6  74.7 1020.1 -9.9 -9.999 -99.9 -99.99 -9.99
2019/08/20 09:18 EDT    0.67   0.95    6   46    8  75.7  74.8 1020.1 -9.9 -9.999 -99.9 -99.99 -9.99
2019/08/20 09:24 EDT    0.71   0.94    5   46    7  75.6  74.8 1020.2 -9.9 -9.999 -99.9 -99.99 -9.99
2019/08/20 09:30 EDT    0.76   0.94    6   45    7  75.6  74.8 1020.2 -9.9 -9.999 -99.9 -99.99 -9.99
2019/08/20 09:36 EDT    0.81   0.94    6   44    7  75.6  74.8 1020.1 -9.9 -9.999 -99.9 -99.99 -9.99
2019/08/20 09:42 EDT    0.87   0.95    5   46    7  75.6  75.0 1020.1 -9.9 -9.999 -99.9 -99.99 -9.99
2019/08/20 09:48 EDT    0.93   0.95    7   42    8  75.4  75.0 1020.1 -9.9 -9.999 -99.9 -99.99 -9.99
2019/08/20 09:54 EDT    0.99   0.96    6   44    7  75.4  75.0 1020.2 -9.9 -9.999 -99.9 -99.99 -9.99
2019/08/20 10:00 EDT    1.06   0.98    5   53    7  75.4  75.0 1020.2 -9.9 -9.999 -99.9 -99.99 -9.99
2019/08/20 10:06 EDT    1.12   1.02    5   55    8  76.5  75.0 1020.2 -9.9 -9.999 -99.9 -99.99 -9.99
2019/08/20 10:12 EDT    1.19   1.04    6   72    9  77.2  75.0 1020.3 -9.9 -9.999 -99.9 -99.99 -9.99
2019/08/20 10:18 EDT    1.26   1.08    4   94    8  78.1  75.0 1020.3 -9.9 -9.999 -99.9 -99.99 -9.99
2019/08/20 10:24 EDT    1.34   1.11    5   60    9  78.6  75.0 1020.3 -9.9 -9.999 -99.9 -99.99 -9.99
2019/08/20 10:30 EDT    1.41   1.17    5   63    8  78.6  75.2 1020.3 -9.9 -9.999 -99.9 -99.99 -9.99
2019/08/20 10:36 EDT    1.50   1.25    6   74   10  78.8  75.2 1020.2 -9.9 -9.999 -99.9 -99.99 -9.99
2019/08/20 10:42 EDT    1.58   1.31    5   69    8  79.0  75.2 1020.2 -9.9 -9.999 -99.9 -99.99 -9.99
2019/08/20 10:48 EDT    1.67   1.39    4   60    6  79.3  75.2 1020.2 -9.9 -9.999 -99.9 -99.99 -9.99
2019/08/20 10:54 EDT    1.77   1.49    3   65    5  79.2  75.0 1020.2 -9.9 -9.999 -99.9 -99.99 -9.99
2019/08/20 11:00 EDT    1.88   1.61    3   67    7  79.7  75.0 1020.2 -9.9 -9.999 -99.9 -99.99 -9.99
2019/08/20 11:06 EDT    1.99   1.74    3   78    5  80.1  75.0 1020.2 -9.9 -9.999 -99.9 -99.99 -9.99
2019/08/20 11:12 EDT    2.11   1.89    2   85    6  80.6  74.8 1020.3 -9.9 -9.999 -99.9 -99.99 -9.99
2019/08/20 11:18 EDT    2.24   2.06    5   54    6  80.6  74.8 1020.3 -9.9 -9.999 -99.9 -99.99 -9.99
2019/08/20 11:24 EDT    2.38   2.25    4   58    7  80.4  74.8 1020.3 -9.9 -9.999 -99.9 -99.99 -9.99
2019/08/20 11:30 EDT    2.53   2.45    4   58    7  80.2  74.8 1020.3 -9.9 -9.999 -99.9 -99.99 -9.99
2019/08/20 11:36 EDT    2.69   2.67    5   55    7  80.8  74.8 1020.2 -9.9 -9.999 -99.9 -99.99 -9.99
2019/08/20 11:42 EDT    2.86   2.89    3   52    6  79.7  74.8 1020.2 -9.9 -9.999 -99.9 -99.99 -9.99
2019/08/20 11:48 EDT    3.04   3.12    4   27    5  80.6  74.7 1020.2 -9.9 -9.999 -99.9 -99.99 -9.99
2019/08/20 11:54 EDT    3.23   3.37    5   39    6  78.4  74.7 1020.0 -9.9 -9.999 -99.9 -99.99 -9.99
2019/08/20 12:00 EDT    3.42   3.63    5   36    6  78.8  74.7 1019.9 -9.9 -9.999 -99.9 -99.99 -9.99
2019/08/20 12:06 EDT    3.63   3.88    5   44    6  78.6  74.7 1019.9 -9.9 -9.999 -99.9 -99.99 -9.99
2019/08/20 12:12 EDT    3.84   4.14    4   59    6  80.4  74.7 1019.8 -9.9 -9.999 -99.9 -99.99 -9.99
2019/08/20 12:18 EDT    4.06   4.40    4   46    6  80.4  74.7 1019.8 -9.9 -9.999 -99.9 -99.99 -9.99
2019/08/20 12:24 EDT    4.28   4.65    4   39    5  79.5  74.7 1019.8 -9.9 -9.999 -99.9 -99.99 -9.99
2019/08/20 12:30 EDT    4.50   4.90    4   44    5  80.1  74.7 1019.8 -9.9 -9.999 -99.9 -99.99 -9.99
2019/08/20 12:36 EDT    4.73   5.14    4   42    4  80.1  74.7 1019.8 -9.9 -9.999 -99.9 -99.99 -9.99
2019/08/20 12:42 EDT    4.96   5.37    4   46    5  80.8  74.7 1019.7 -9.9 -9.999 -99.9 -99.99 -9.99
2019/08/20 12:48 EDT    5.19   5.58    4   33    5  80.8  74.7 1019.7 -9.9 -9.999 -99.9 -99.99 -9.99
2019/08/20 12:54 EDT    5.41   5.78    4   33    5  81.0  74.8 1019.6 -9.9 -9.999 -99.9 -99.99 -9.99
2019/08/20 13:00 EDT    5.63   5.98    5   41    5  81.0  74.8 1019.5 -9.9 -9.999 -99.9 -99.99 -9.99
2019/08/20 13:06 EDT    5.84   6.17    4   34    5  80.2  74.7 1019.3 -9.9 -9.999 -99.9 -99.99 -9.99
2019/08/20 13:12 EDT    6.05   6.34    3   34    5  80.2  74.7 1019.3 -9.9 -9.999 -99.9 -99.99 -9.99
2019/08/20 13:18 EDT    6.24   6.50    3   34    5  80.6  74.7 1019.2 -9.9 -9.999 -99.9 -99.99 -9.99
2019/08/20 13:24 EDT    6.43   6.64    4   38    4  80.4  74.7 1019.2 -9.9 -9.999 -99.9 -99.99 -9.99
2019/08/20 13:30 EDT    6.60   6.78    4   43    4  81.9  74.7 1019.2 -9.9 -9.999 -99.9 -99.99 -9.99
2019/08/20 13:36 EDT    6.76   6.89    5   42    5  80.8  74.7 1019.2 -9.9 -9.999 -99.9 -99.99 -9.99
2019/08/20 13:42 EDT    6.91   7.01    4   43    5  81.1  74.7 1019.2 -9.9 -9.999 -99.9 -99.99 -9.99
2019/08/20 13:48 EDT    7.05   7.11    4   39    4  82.2  74.7 1019.2 -9.9 -9.999 -99.9 -99.99 -9.99
2019/08/20 13:54 EDT    7.17   7.21    4   48    5  81.7  74.7 1019.2 -9.9 -9.999 -99.9 -99.99 -9.99
2019/08/20 14:00 EDT    7.28   7.29    4   55    5  82.6  74.7 1019.2 -9.9 -9.999 -99.9 -99.99 -9.99
2019/08/20 14:06 EDT    7.37   7.36    4   48    5  82.6  74.7 1019.1 -9.9 -9.999 -99.9 -99.99 -9.99
2019/08/20 14:12 EDT    7.45   7.43    2   49    4  82.9  74.8 1019.1 -9.9 -9.999 -99.9 -99.99 -9.99
2019/08/20 14:18 EDT    7.51   7.49    2   56    3  84.2  74.8 1019.0 -9.9 -9.999 -99.9 -99.99 -9.99
2019/08/20 14:24 EDT    7.57   7.53    6  224    8  83.3  74.8 1019.1 -9.9 -9.999 -99.9 -99.99 -9.99
2019/08/20 14:30 EDT    7.60   7.56    8  222   10  82.9  74.8 1019.1 -9.9 -9.999 -99.9 -99.99 -9.99
2019/08/20 14:36 EDT    7.63   7.60    9  218   10  81.5  74.8 1019.1 -9.9 -9.999 -99.9 -99.99 -9.99
2019/08/20 14:42 EDT    7.65   7.63   11  216   12  82.2  74.8 1019.1 -9.9 -9.999 -99.9 -99.99 -9.99
2019/08/20 14:48 EDT    7.65   7.65   11  211   12  81.9  74.8 1019.1 -9.9 -9.999 -99.9 -99.99 -9.99
2019/08/20 14:54 EDT    7.65   7.68   11  213   12  81.9  74.8 1019.1 -9.9 -9.999 -99.9 -99.99 -9.99
2019/08/20 15:00 EDT    7.64   7.70   11  220   13  82.2  74.8 1019.0 -9.9 -9.999 -99.9 -99.99 -9.99
2019/08/20 15:06 EDT    7.62   7.72   11  220   13  82.6  74.8 1019.0 -9.9 -9.999 -99.9 -99.99 -9.99
2019/08/20 15:12 EDT    7.59   7.74    9  218   11  81.9  74.8 1018.9 -9.9 -9.999 -99.9 -99.99 -9.99
2019/08/20 15:18 EDT    7.56   7.76    8  232   11  82.6  74.8 1018.9 -9.9 -9.999 -99.9 -99.99 -9.99
2019/08/20 15:24 EDT    7.52   7.77   10  227   11  82.4  74.8 1018.9 -9.9 -9.999 -99.9 -99.99 -9.99
2019/08/20 15:30 EDT    7.48   7.80    7  222   10  83.1  74.8 1018.8 -9.9 -9.999 -99.9 -99.99 -9.99
2019/08/20 15:36 EDT    7.43   7.81    9  222   10  82.6  74.8 1018.6 -9.9 -9.999 -99.9 -99.99 -9.99
2019/08/20 15:42 EDT    7.39   7.83    9  218   10  82.0  74.8 1018.6 -9.9 -9.999 -99.9 -99.99 -9.99
2019/08/20 15:48 EDT    7.33   7.83    9  228   12  82.8  74.8 1018.5 -9.9 -9.999 -99.9 -99.99 -9.99
2019/08/20 15:54 EDT    7.28   7.84    9  228   12  82.9  74.8 1018.5 -9.9 -9.999 -99.9 -99.99 -9.99
2019/08/20 16:00 EDT    7.22   7.82    8  220   10  82.8  74.8 1018.5 -9.9 -9.999 -99.9 -99.99 -9.99
2019/08/20 16:06 EDT    7.17   7.81   11  209   12  82.2  74.8 1018.3 -9.9 -9.999 -99.9 -99.99 -9.99
2019/08/20 16:12 EDT    7.10   7.79   10  203   12  82.9  74.7 1018.2 -9.9 -9.999 -99.9 -99.99 -9.99
2019/08/20 16:18 EDT    7.04   7.76   10  206   14  81.9  74.7 1018.2 -9.9 -9.999 -99.9 -99.99 -9.99
2019/08/20 16:24 EDT    6.97   7.73   11  205   11  82.2  74.7 1018.3 -9.9 -9.999 -99.9 -99.99 -9.99
2019/08/20 16:30 EDT    6.90   7.69   11  205   11  81.9  74.7 1018.3 -9.9 -9.999 -99.9 -99.99 -9.99
2019/08/20 16:36 EDT    6.83   7.64   10  210   11  81.9  74.7 1018.2 -9.9 -9.999 -99.9 -99.99 -9.99
2019/08/20 16:42 EDT    6.75   7.57   11  211   12  81.7  74.7 1018.2 -9.9 -9.999 -99.9 -99.99 -9.99
2019/08/20 16:48 EDT    6.67   7.50   11  205   13  82.0  75.0 1018.3 -9.9 -9.999 -99.9 -99.99 -9.99
2019/08/20 16:54 EDT    6.58   7.42   11  205   13  82.0  75.0 1018.3 -9.9 -9.999 -99.9 -99.99 -9.99
2019/08/20 17:00 EDT    6.49   7.33   11  206   13  82.0  74.8 1018.3 -9.9 -9.999 -99.9 -99.99 -9.99
2019/08/20 17:06 EDT    6.39   7.23   11  210   13  81.5  75.2 1018.3 -9.9 -9.999 -99.9 -99.99 -9.99
2019/08/20 17:12 EDT    6.29   7.11   11  206   12  82.0  75.2 1018.2 -9.9 -9.999 -99.9 -99.99 -9.99
2019/08/20 17:18 EDT    6.18   6.97   12  208   13  82.0  75.2 1018.2 -9.9 -9.999 -99.9 -99.99 -9.99
2019/08/20 17:24 EDT    6.06   6.83   12  210   13  82.0  75.2 1018.3 -9.9 -9.999 -99.9 -99.99 -9.99
2019/08/20 17:30 EDT    5.93   6.68   12  210   13  82.0  75.2 1018.3 -9.9 -9.999 -99.9 -99.99 -9.99
2019/08/20 17:36 EDT    5.80   6.49   12  213   15  81.9  75.2 1018.3 -9.9 -9.999 -99.9 -99.99 -9.99
2019/08/20 17:42 EDT    5.66   6.32   13  213   15  82.0  75.2 1018.2 -9.9 -9.999 -99.9 -99.99 -9.99
2019/08/20 17:48 EDT    5.51   6.13   11  216   14  81.9  75.2 1018.3 -9.9 -9.999 -99.9 -99.99 -9.99
2019/08/20 17:54 EDT    5.35   5.92   11  214   12  82.0  75.4 1018.2 -9.9 -9.999 -99.9 -99.99 -9.99
2019/08/20 18:00 EDT    5.19   5.70   10  219   12  81.5  75.6 1018.2 -9.9 -9.999 -99.9 -99.99 -9.99
2019/08/20 18:06 EDT    5.02   5.48   12  210   14  81.3  75.6 1018.2 -9.9 -9.999 -99.9 -99.99 -9.99
2019/08/20 18:12 EDT    4.84   5.25   12  210   14  81.7  75.6 1018.1 -9.9 -9.999 -99.9 -99.99 -9.99
2019/08/20 18:18 EDT    4.66   5.03   11  216   13  81.1  75.7 1017.9 -9.9 -9.999 -99.9 -99.99 -9.99
2019/08/20 18:24 EDT    4.47   4.78   11  219   14  81.7  75.7 1017.7 -9.9 -9.999 -99.9 -99.99 -9.99
2019/08/20 18:30 EDT    4.28   4.56   12  208   12  81.3  75.7 1017.7 -9.9 -9.999 -99.9 -99.99 -9.99
2019/08/20 18:36 EDT    4.08   4.32   11  213   13  81.3  75.7 1017.6 -9.9 -9.999 -99.9 -99.99 -9.99
2019/08/20 18:42 EDT    3.89   4.09   12  210   13  81.3  75.9 1017.5 -9.9 -9.999 -99.9 -99.99 -9.99
2019/08/20 18:48 EDT    3.68   3.86   11  216   14  81.3  75.9 1017.5 -9.9 -9.999 -99.9 -99.99 -9.99
2019/08/20 18:54 EDT    3.48   3.64   10  212   13  80.8  75.9 1017.6 -9.9 -9.999 -99.9 -99.99 -9.99
2019/08/20 19:00 EDT    3.28   3.42   10  213   11  80.6  75.9 1017.6 -9.9 -9.999 -99.9 -99.99 -9.99
2019/08/20 19:06 EDT    3.08   3.19   12  212   13  80.2  75.9 1017.5 -9.9 -9.999 -99.9 -99.99 -9.99
2019/08/20 19:12 EDT    2.88   3.00   11  210   13  80.6  76.1 1017.5 -9.9 -9.999 -99.9 -99.99 -9.99
2019/08/20 19:18 EDT    2.68   2.80    8  209   11  80.4  76.1 1017.5 -9.9 -9.999 -99.9 -99.99 -9.99
2019/08/20 19:24 EDT    2.49   2.63   10  204   11  80.1  76.1 1017.6 -9.9 -9.999 -99.9 -99.99 -9.99
2019/08/20 19:30 EDT    2.31   2.44   10  202   11  80.1  76.1 1017.4 -9.9 -9.999 -99.9 -99.99 -9.99
2019/08/20 19:36 EDT    2.13   2.28    9  205   11  80.1  75.9 1017.4 -9.9 -9.999 -99.9 -99.99 -9.99
2019/08/20 19:42 EDT    1.96   2.11    9  205   10  79.5  75.7 1017.4 -9.9 -9.999 -99.9 -99.99 -9.99
2019/08/20 19:48 EDT    1.79   1.98    9  202   11  79.5  75.7 1017.5 -9.9 -9.999 -99.9 -99.99 -9.99
2019/08/20 19:54 EDT    1.64   1.83    9  201   11  79.2  75.6 1017.5 -9.9 -9.999 -99.9 -99.99 -9.99
2019/08/20 20:00 EDT    1.50   1.71   11  204   12  79.3  75.9 1017.4 -9.9 -9.999 -99.9 -99.99 -9.99
2019/08/20 20:06 EDT    1.37   1.60   11  207   13  79.3  75.9 1017.4 -9.9 -9.999 -99.9 -99.99 -9.99
2019/08/20 20:12 EDT    1.25   1.53   10  206   11  79.2  75.9 1017.4 -9.9 -9.999 -99.9 -99.99 -9.99
2019/08/20 20:18 EDT    1.14   1.45    7  207   10  79.0  75.9 1017.4 -9.9 -9.999 -99.9 -99.99 -9.99
2019/08/20 20:24 EDT    1.05   1.38    8  209    9  78.6  75.9 1017.5 -9.9 -9.999 -99.9 -99.99 -9.99
2019/08/20 20:30 EDT    0.97   1.35    9  207    9  78.8  75.9 1017.5 -9.9 -9.999 -99.9 -99.99 -9.99
2019/08/20 20:36 EDT    0.90   1.30    9  207   10  78.6  75.9 1017.5 -9.9 -9.999 -99.9 -99.99 -9.99
2019/08/20 20:42 EDT    0.84   1.28    9  205   11  78.6  75.9 1017.6 -9.9 -9.999 -99.9 -99.99 -9.99
2019/08/20 20:48 EDT    0.79   1.25   10  206   12  78.6  75.9 1017.7 -9.9 -9.999 -99.9 -99.99 -9.99
2019/08/20 20:54 EDT    0.76   1.24   10  204   12  78.4  75.9 1017.8 -9.9 -9.999 -99.9 -99.99 -9.99
2019/08/20 21:00 EDT    0.74   1.23    9  210   11  78.4  75.9 1017.8 -9.9 -9.999 -99.9 -99.99 -9.99
2019/08/20 21:06 EDT    0.72   1.23    9  205   10  78.4  75.9 1017.9 -9.9 -9.999 -99.9 -99.99 -9.99
2019/08/20 21:12 EDT    0.72   1.23    7  203    9  78.4  76.1 1017.9 -9.9 -9.999 -99.9 -99.99 -9.99
2019/08/20 21:18 EDT    0.73   1.23    7  207    9  77.9  76.1 1018.0 -9.9 -9.999 -99.9 -99.99 -9.99
2019/08/20 21:24 EDT    0.74   1.22    9  211   11  77.9  76.1 1018.0 -9.9 -9.999 -99.9 -99.99 -9.99
2019/08/20 21:30 EDT    0.76   1.21    9  209   11  78.3  76.1 1018.0 -9.9 -9.999 -99.9 -99.99 -9.99
2019/08/20 21:36 EDT    0.79   1.21    8  211   10  78.1  76.1 1018.1 -9.9 -9.999 -99.9 -99.99 -9.99
2019/08/20 21:42 EDT    0.82   1.21    7  209    9  77.9  76.1 1018.0 -9.9 -9.999 -99.9 -99.99 -9.99
2019/08/20 21:48 EDT    0.85   1.22    7  212    8  77.9  76.1 1018.1 -9.9 -9.999 -99.9 -99.99 -9.99
2019/08/20 21:54 EDT    0.89   1.22    8  212    9  77.9  76.1 1018.1 -9.9 -9.999 -99.9 -99.99 -9.99
2019/08/20 22:00 EDT    0.94   1.22    8  212    9  77.9  76.3 1018.1 -9.9 -9.999 -99.9 -99.99 -9.99
2019/08/20 22:06 EDT    0.98   1.24    7  207    8  77.7  76.3 1018.1 -9.9 -9.999 -99.9 -99.99 -9.99
2019/08/20 22:12 EDT    1.03   1.26    7  208    8  77.4  76.3 1018.1 -9.9 -9.999 -99.9 -99.99 -9.99
2019/08/20 22:18 EDT    1.08   1.27    7  201    8  77.4  76.3 1018.1 -9.9 -9.999 -99.9 -99.99 -9.99
2019/08/20 22:24 EDT    1.13   1.30    8  205    9  77.5  76.3 1018.1 -9.9 -9.999 -99.9 -99.99 -9.99
2019/08/20 22:30 EDT    1.19   1.32    7  203    9  77.5  76.1 1018.0 -9.9 -9.999 -99.9 -99.99 -9.99
2019/08/20 22:36 EDT    1.24   1.35    7  202    9  77.4  76.1 1017.8 -9.9 -9.999 -99.9 -99.99 -9.99
2019/08/20 22:42 EDT    1.30   1.38    8  201    9  77.4  76.1 1017.8 -9.9 -9.999 -99.9 -99.99 -9.99
2019/08/20 22:48 EDT    1.36   1.43    7  207    8  77.4  76.1 1017.8 -9.9 -9.999 -99.9 -99.99 -9.99
2019/08/20 22:54 EDT    1.42   1.47    7  206    7  77.2  76.1 1017.8 -9.9 -9.999 -99.9 -99.99 -9.99
2019/08/20 23:00 EDT    1.49   1.55    6  209    7  77.0  76.1 1017.8 -9.9 -9.999 -99.9 -99.99 -9.99
2019/08/20 23:06 EDT    1.56   1.61    7  204    7  77.2  76.1 1017.7 -9.9 -9.999 -99.9 -99.99 -9.99
2019/08/20 23:12 EDT    1.64   1.68    6  200    7  77.0  76.1 1017.6 -9.9 -9.999 -99.9 -99.99 -9.99
2019/08/20 23:18 EDT    1.72   1.78    6  201    7  77.0  75.7 1017.5 -9.9 -9.999 -99.9 -99.99 -9.99
2019/08/20 23:24 EDT    1.81   1.88    6  203    7  77.0  75.7 1017.5 -9.9 -9.999 -99.9 -99.99 -9.99
2019/08/20 23:30 EDT    1.91   2.00    5  200    6  77.0  75.6 1017.6 -9.9 -9.999 -99.9 -99.99 -9.99
2019/08/20 23:36 EDT    2.01   2.14    5  202    6  76.8  75.4 1017.5 -9.9 -9.999 -99.9 -99.99 -9.99
2019/08/20 23:42 EDT    2.13   2.28    5  195    7  76.8  75.2 1017.5 -9.9 -9.999 -99.9 -99.99 -9.99
2019/08/20 23:48 EDT    2.25   2.44    5  194    7  76.8  75.2 1017.6 -9.9 -9.999 -99.9 -99.99 -9.99
2019/08/20 23:54 EDT    2.38   2.60    4  193    6  76.6  75.2 1017.6 -9.9 -9.999 -99.9 -99.99 -9.99
2019/08/21 00:00 EDT    2.52   2.79    4  181    5  76.6  75.2 1017.5 -9.9 -9.999 -99.9 -99.99 -9.99
2019/08/21 00:06 EDT    2.68   2.98    4  189    6  76.5  75.2 1017.5 -9.9 -9.999 -99.9 -99.99 -9.99
2019/08/21 00:12 EDT    2.84   3.18    3  181    5  76.5  75.2 1017.7 -9.9 -9.999 -99.9 -99.99 -9.99
2019/08/21 00:18 EDT    3.01   3.37    2  178    4  76.5  75.2 1017.7 -9.9 -9.999 -99.9 -99.99 -9.99
2019/08/21 00:24 EDT    3.19   3.58    2  207    3  76.3  75.2 1017.8 -9.9 -9.999 -99.9 -99.99 -9.99
2019/08/21 00:30 EDT    3.38   3.79    3  192    4  76.1  75.2 1017.9 -9.9 -9.999 -99.9 -99.99 -9.99
2019/08/21 00:36 EDT    3.58   4.00    3  192    4  75.9  75.2 1017.8 -9.9 -9.999 -99.9 -99.99 -9.99
2019/08/21 00:42 EDT    3.78   4.20    4  196    5  75.9  75.2 1017.9 -9.9 -9.999 -99.9 -99.99 -9.99
2019/08/21 00:48 EDT    3.99   4.40    5  196    6  75.7  75.2 1017.8 -9.9 -9.999 -99.9 -99.99 -9.99
2019/08/21 00:54 EDT    4.21   4.60    4  185    5  75.7  75.2 1017.6 -9.9 -9.999 -99.9 -99.99 -9.99
2019/08/21 01:00 EDT    4.42   4.81    4  183    5  75.7  75.2 1017.6 -9.9 -9.999 -99.9 -99.99 -9.99
2019/08/21 01:06 EDT    4.64   5.03    5  191    7  75.7  75.2 1017.6 -9.9 -9.999 -99.9 -99.99 -9.99
2019/08/21 01:12 EDT    4.85   5.22    4  191    7  75.7  75.0 1017.7 -9.9 -9.999 -99.9 -99.99 -9.99
2019/08/21 01:18 EDT    5.07   5.42    4  189    6  75.7  75.0 1017.6 -9.9 -9.999 -99.9 -99.99 -9.99
2019/08/21 01:24 EDT    5.28   5.62    4  187    6  75.7  75.0 1017.6 -9.9 -9.999 -99.9 -99.99 -9.99
2019/08/21 01:30 EDT    5.48   5.82    4  183    5  75.6  75.2 1017.5 -9.9 -9.999 -99.9 -99.99 -9.99
2019/08/21 01:36 EDT    5.68   6.02    5  199    6  75.6  75.2 1017.5 -9.9 -9.999 -99.9 -99.99 -9.99
2019/08/21 01:42 EDT    5.87   6.17    8  203   11  75.6  75.2 1017.6 -9.9 -9.999 -99.9 -99.99 -9.99
2019/08/21 01:48 EDT    6.05   6.32    9  208   11  75.6  75.2 1017.6 -9.9 -9.999 -99.9 -99.99 -9.99
2019/08/21 01:54 EDT    6.22   6.48   11  209   12  75.7  75.2 1017.6 -9.9 -9.999 -99.9 -99.99 -9.99
2019/08/21 02:00 EDT    6.37   6.61   10  208   11  75.7  75.2 1017.6 -9.9 -9.999 -99.9 -99.99 -9.99
2019/08/21 02:06 EDT    6.52   6.76   10  204   11  75.7  75.2 1017.5 -9.9 -9.999 -99.9 -99.99 -9.99
2019/08/21 02:12 EDT    6.65   6.88   10  206   11  75.7  75.2 1017.4 -9.9 -9.999 -99.9 -99.99 -9.99
2019/08/21 02:18 EDT    6.77   7.00   10  208   11  75.7  75.2 1017.3 -9.9 -9.999 -99.9 -99.99 -9.99
2019/08/21 02:24 EDT    6.87   7.11   10  210   11  75.9  75.2 1017.2 -9.9 -9.999 -99.9 -99.99 -9.99
2019/08/21 02:30 EDT    6.96   7.21    9  212   10  75.9  75.0 1017.0 -9.9 -9.999 -99.9 -99.99 -9.99
2019/08/21 02:36 EDT    7.04   7.27    9  220   10  75.9  75.0 1017.0 -9.9 -9.999 -99.9 -99.99 -9.99
2019/08/21 02:42 EDT    7.10   7.34    9  219   11  75.9  75.0 1017.1 -9.9 -9.999 -99.9 -99.99 -9.99
2019/08/21 02:48 EDT    7.15   7.39    7  225   10  75.9  75.0 1017.2 -9.9 -9.999 -99.9 -99.99 -9.99
2019/08/21 02:54 EDT    7.19   7.42    7  227    9  75.9  75.0 1017.1 -9.9 -9.999 -99.9 -99.99 -9.99
2019/08/21 03:00 EDT    7.21   7.45    7  220    9  76.1  75.0 1017.0 -9.9 -9.999 -99.9 -99.99 -9.99
2019/08/21 03:06 EDT    7.23   7.47    7  220    8  76.1  75.0 1017.0 -9.9 -9.999 -99.9 -99.99 -9.99
2019/08/21 03:12 EDT    7.23   7.47    7  227   11  75.9  75.0 1017.0 -9.9 -9.999 -99.9 -99.99 -9.99
2019/08/21 03:18 EDT    7.23   7.46    6  228    9  76.1  75.0 1017.0 -9.9 -9.999 -99.9 -99.99 -9.99
2019/08/21 03:24 EDT    7.21   7.45    8  228    9  75.9  75.0 1016.8 -9.9 -9.999 -99.9 -99.99 -9.99
2019/08/21 03:30 EDT    7.19   7.47    8  231    9  76.1  75.0 1016.8 -9.9 -9.999 -99.9 -99.99 -9.99
2019/08/21 03:36 EDT    7.16   7.47    6  232    9  75.9  75.0 1016.8 -9.9 -9.999 -99.9 -99.99 -9.99
2019/08/21 03:42 EDT    7.13   7.47    6  246   10  76.1  75.0 1016.6 -9.9 -9.999 -99.9 -99.99 -9.99
2019/08/21 03:48 EDT    7.09   7.46    6  249    8  76.3  75.0 1016.6 -9.9 -9.999 -99.9 -99.99 -9.99
2019/08/21 03:54 EDT    7.05   7.43    5  243    6  76.3  75.0 1016.6 -9.9 -9.999 -99.9 -99.99 -9.99
2019/08/21 04:00 EDT    7.00   7.43    4  237    5  76.5  75.0 1016.5 -9.9 -9.999 -99.9 -99.99 -9.99
2019/08/21 04:06 EDT    6.96   7.42    4  232    6  76.5  75.0 1016.5 -9.9 -9.999 -99.9 -99.99 -9.99
2019/08/21 04:12 EDT    6.90   7.39    4  228    5  76.3  75.0 1016.4 -9.9 -9.999 -99.9 -99.99 -9.99
2019/08/21 04:18 EDT    6.85   7.35    5  223    6  76.5  75.0 1016.2 -9.9 -9.999 -99.9 -99.99 -9.99
2019/08/21 04:24 EDT    6.79   7.32    5  226    7  76.5  75.0 1016.2 -9.9 -9.999 -99.9 -99.99 -9.99
2019/08/21 04:30 EDT    6.73   7.28    4  223    6  76.6  75.0 1016.0 -9.9 -9.999 -99.9 -99.99 -9.99
2019/08/21 04:36 EDT    6.67   7.24    5  214    5  76.6  75.0 1016.0 -9.9 -9.999 -99.9 -99.99 -9.99
2019/08/21 04:42 EDT    6.61   7.20    5  206    6  76.5  75.0 1015.8 -9.9 -9.999 -99.9 -99.99 -9.99
2019/08/21 04:48 EDT    6.54   7.16    5  206    6  76.5  74.8 1015.7 -9.9 -9.999 -99.9 -99.99 -9.99
2019/08/21 04:54 EDT    6.47   7.11    5  213    6  76.5  74.8 1015.6 -9.9 -9.999 -99.9 -99.99 -9.99
2019/08/21 05:00 EDT    6.40   7.05    3  171    5  76.3  74.8 1015.3 -9.9 -9.999 -99.9 -99.99 -9.99
2019/08/21 05:06 EDT    6.32   7.00    2  146    4  76.3  74.8 1015.3 -9.9 -9.999 -99.9 -99.99 -9.99
2019/08/21 05:12 EDT    6.24   6.94    2  168    3  76.3  74.8 1015.3 -9.9 -9.999 -99.9 -99.99 -9.99
2019/08/21 05:18 EDT    6.15   6.84    2  171    4  76.3  74.8 1015.3 -9.9 -9.999 -99.9 -99.99 -9.99
2019/08/21 05:24 EDT    6.06   6.74    2  208    3  76.1  74.8 1015.4 -9.9 -9.999 -99.9 -99.99 -9.99
2019/08/21 05:30 EDT    5.97   6.62    2  193    3  75.9  74.8 1015.5 -9.9 -9.999 -99.9 -99.99 -9.99
2019/08/21 05:36 EDT    5.86   6.49    3  201    4  75.7  74.7 1015.4 -9.9 -9.999 -99.9 -99.99 -9.99
2019/08/21 05:42 EDT    5.76   6.35    4  194    5  75.7  74.7 1015.5 -9.9 -9.999 -99.9 -99.99 -9.99
2019/08/21 05:48 EDT    5.64   6.20    5  200    6  75.7  74.7 1015.4 -9.9 -9.999 -99.9 -99.99 -9.99
2019/08/21 05:54 EDT    5.52   6.04    4  210    5  75.9  74.5 1015.3 -9.9 -9.999 -99.9 -99.99 -9.99
2019/08/21 06:00 EDT    5.39   5.88    5  215    5  75.9  74.5 1015.3 -9.9 -9.999 -99.9 -99.99 -9.99
2019/08/21 06:06 EDT    5.25   5.69    3  204    5  75.7  74.7 1015.2 -9.9 -9.999 -99.9 -99.99 -9.99
2019/08/21 06:12 EDT    5.11   5.53    3  210    4  75.7  74.7 1015.2 -9.9 -9.999 -99.9 -99.99 -9.99
2019/08/21 06:18 EDT    4.96   5.35    3  210    4  75.9  74.7 1015.3 -9.9 -9.999 -99.9 -99.99 -9.99
2019/08/21 06:24 EDT    4.80   5.15    3  190    4  75.7  74.8 1015.2 -9.9 -9.999 -99.9 -99.99 -9.99
2019/08/21 06:30 EDT    4.63   4.97    3  193    4  75.7  74.8 1015.3 -9.9 -9.999 -99.9 -99.99 -9.99
2019/08/21 06:36 EDT    4.46   4.78    1  190    3  75.7  74.8 1015.3 -9.9 -9.999 -99.9 -99.99 -9.99
2019/08/21 06:42 EDT    4.28   4.59    1  230    2  75.9  74.8 1015.5 -9.9 -9.999 -99.9 -99.99 -9.99
2019/08/21 06:48 EDT    4.10   4.39    3  207    3  75.9  74.8 1015.6 -9.9 -9.999 -99.9 -99.99 -9.99
2019/08/21 06:54 EDT    3.92   4.19    3  215    3  75.9  74.8 1015.6 -9.9 -9.999 -99.9 -99.99 -9.99
2019/08/21 07:00 EDT    3.73   3.99    3  205    4  75.7  74.8 1015.7 -9.9 -9.999 -99.9 -99.99 -9.99
2019/08/21 07:06 EDT    3.53   3.79    4  175    5  75.7  74.8 1015.7 -9.9 -9.999 -99.9 -99.99 -9.99
2019/08/21 07:12 EDT    3.34   3.60    4  193    6  75.9  74.8 1015.6 -9.9 -9.999 -99.9 -99.99 -9.99
2019/08/21 07:18 EDT    3.14   3.39    6  206    7  75.9  74.8 1015.6 -9.9 -9.999 -99.9 -99.99 -9.99
2019/08/21 07:24 EDT    2.95   3.19    4  192    6  76.1  74.8 1015.7 -9.9 -9.999 -99.9 -99.99 -9.99
2019/08/21 07:30 EDT    2.76   3.01    4  207    5  76.3  74.8 1015.8 -9.9 -9.999 -99.9 -99.99 -9.99
2019/08/21 07:36 EDT    2.56   2.84    7  214    7  76.3  74.8 1015.9 -9.9 -9.999 -99.9 -99.99 -9.99
2019/08/21 07:42 EDT    2.38   2.68    7  210    8  76.3  74.8 1015.9 -9.9 -9.999 -99.9 -99.99 -9.99
2019/08/21 07:48 EDT    2.20   2.51    7  194    9  76.3  74.8 1015.7 -9.9 -9.999 -99.9 -99.99 -9.99
2019/08/21 07:54 EDT    2.02   2.36    7  200    8  76.3  74.8 1015.7 -9.9 -9.999 -99.9 -99.99 -9.99
2019/08/21 08:00 EDT    1.85   2.22    8  207    9  76.5  74.8 1015.7 -9.9 -9.999 -99.9 -99.99 -9.99
2019/08/21 08:06 EDT    1.69   2.09    9  215    9  76.5  74.8 1015.6 -9.9 -9.999 -99.9 -99.99 -9.99
2019/08/21 08:12 EDT    1.54   1.98    9  220   10  76.6  74.8 1015.6 -9.9 -9.999 -99.9 -99.99 -9.99
2019/08/21 08:18 EDT    1.40   1.87    9  214   10  76.8  74.8 1015.5 -9.9 -9.999 -99.9 -99.99 -9.99
2019/08/21 08:24 EDT    1.27   1.77   10  215   11  76.8  74.8 1015.5 -9.9 -9.999 -99.9 -99.99 -9.99
2019/08/21 08:30 EDT    1.15   1.70    8  231   10  77.0  74.8 1015.5 -9.9 -9.999 -99.9 -99.99 -9.99
2019/08/21 08:36 EDT    1.04   1.63   10  222   11  77.0  74.8 1015.5 -9.9 -9.999 -99.9 -99.99 -9.99
2019/08/21 08:42 EDT    0.95   1.56   10  216   11  77.4  74.8 1015.4 -9.9 -9.999 -99.9 -99.99 -9.99
2019/08/21 08:48 EDT    0.87   1.51   10  218   11  77.2  74.8 1015.3 -9.9 -9.999 -99.9 -99.99 -9.99
2019/08/21 08:54 EDT    0.80   1.46   10  214   12  77.4  75.0 1015.3 -9.9 -9.999 -99.9 -99.99 -9.99
2019/08/21 09:00 EDT    0.75   1.44   10  214   12  77.5  75.0 1015.3 -9.9 -9.999 -99.9 -99.99 -9.99
2019/08/21 09:06 EDT    0.71   1.41   11  208   12  77.2  74.8 1015.2 -9.9 -9.999 -99.9 -99.99 -9.99
2019/08/21 09:12 EDT    0.68   1.39    9  215   12  77.4  75.0 1015.2 -9.9 -9.999 -99.9 -99.99 -9.99
2019/08/21 09:18 EDT    0.66   1.36   10  225   11  77.4  75.0 1015.2 -9.9 -9.999 -99.9 -99.99 -9.99
2019/08/21 09:24 EDT    0.65   1.32   10  218   12  77.4  75.0 1015.0 -9.9 -9.999 -99.9 -99.99 -9.99
2019/08/21 09:30 EDT    0.66   1.29   10  218   12  77.4  75.0 1015.0 -9.9 -9.999 -99.9 -99.99 -9.99
2019/08/21 09:36 EDT    0.68   1.28   12  212   13  77.5  75.2 1014.9 -9.9 -9.999 -99.9 -99.99 -9.99
2019/08/21 09:42 EDT    0.70   1.28   11  213   12  77.7  75.2 1014.9 -9.9 -9.999 -99.9 -99.99 -9.99
2019/08/21 09:48 EDT    0.73   1.26   10  220   11  77.9  75.4 1015.0 -9.9 -9.999 -99.9 -99.99 -9.99
2019/08/21 09:54 EDT    0.77   1.24   11  220   13  78.4  75.4 1015.0 -9.9 -9.999 -99.9 -99.99 -9.99
2019/08/21 10:00 EDT    0.82   1.24   10  217   13  78.6  75.4 1014.9 -9.9 -9.999 -99.9 -99.99 -9.99
2019/08/21 10:06 EDT    0.88   1.22   11  214   13  78.6  75.4 1014.8 -9.9 -9.999 -99.9 -99.99 -9.99
2019/08/21 10:12 EDT    0.93   1.23   11  217   13  79.0  75.6 1014.8 -9.9 -9.999 -99.9 -99.99 -9.99
2019/08/21 10:18 EDT    1.00   1.25   10  227   13  79.5  75.6 1014.7 -9.9 -9.999 -99.9 -99.99 -9.99
2019/08/21 10:24 EDT    1.06   1.27   10  227   13  79.5  75.6 1014.7 -9.9 -9.999 -99.9 -99.99 -9.99
2019/08/21 10:30 EDT    1.13   1.30   12  241   14  80.2  75.6 1014.5 -9.9 -9.999 -99.9 -99.99 -9.99
2019/08/21 10:36 EDT    1.20   1.33   11  230   14  80.4  75.6 1014.4 -9.9 -9.999 -99.9 -99.99 -9.99
2019/08/21 10:42 EDT    1.27   1.36   11  239   14  80.2  75.7 1014.4 -9.9 -9.999 -99.9 -99.99 -9.99
2019/08/21 10:48 EDT    1.35   1.41   10  240   15  81.0  75.7 1014.3 -9.9 -9.999 -99.9 -99.99 -9.99
2019/08/21 10:54 EDT    1.42   1.48   10  240   15  81.0  75.7 1014.3 -9.9 -9.999 -99.9 -99.99 -9.99
2019/08/21 11:00 EDT    1.50   1.53   11  234   14  81.1  75.7 1014.3 -9.9 -9.999 -99.9 -99.99 -9.99
2019/08/21 11:06 EDT    1.58   1.59   12  240   15  81.1  75.7 1014.2 -9.9 -9.999 -99.9 -99.99 -9.99
2019/08/21 11:12 EDT    1.66   1.68    9  252   14  81.5  75.9 1014.1 -9.9 -9.999 -99.9 -99.99 -9.99
2019/08/21 11:18 EDT    1.75   1.77   11  244   14  81.9  75.9 1014.1 -9.9 -9.999 -99.9 -99.99 -9.99
2019/08/21 11:24 EDT    1.83   1.89   12  236   14  82.2  75.9 1014.1 -9.9 -9.999 -99.9 -99.99 -9.99
2019/08/21 11:30 EDT    1.92   2.00   11  240   13  81.9  76.1 1014.0 -9.9 -9.999 -99.9 -99.99 -9.99
2019/08/21 11:36 EDT    2.02   2.13   10  253   12  82.0  76.3 1013.9 -9.9 -9.999 -99.9 -99.99 -9.99
2019/08/21 11:42 EDT    2.12   2.27   13  245   18  81.9  76.6 1014.0 -9.9 -9.999 -99.9 -99.99 -9.99
2019/08/21 11:48 EDT    2.23   2.43   11  279   17  82.6  76.6 1014.1 -9.9 -9.999 -99.9 -99.99 -9.99
2019/08/21 11:54 EDT    2.34   2.62   14  253   20  82.2  76.5 1014.1 -9.9 -9.999 -99.9 -99.99 -9.99
2019/08/21 12:00 EDT    2.46   2.82   16  266   18  82.4  75.9 1014.1 -9.9 -9.999 -99.9 -99.99 -9.99
2019/08/21 12:06 EDT    2.59   3.02   13  278   17  82.0  75.6 1014.1 -9.9 -9.999 -99.9 -99.99 -9.99
2019/08/21 12:12 EDT    2.72   3.22   13  265   16  82.6  75.4 1014.1 -9.9 -9.999 -99.9 -99.99 -9.99
2019/08/21 12:18 EDT    2.87   3.45   13  284   15  81.9  75.4 1014.1 -9.9 -9.999 -99.9 -99.99 -9.99
2019/08/21 12:24 EDT    3.02   3.68   11  276   17  81.9  75.4 1014.1 -9.9 -9.999 -99.9 -99.99 -9.99
2019/08/21 12:30 EDT    3.19   3.89   14  287   17  81.9  75.4 1014.1 -9.9 -9.999 -99.9 -99.99 -9.99
2019/08/21 12:36 EDT    3.36   4.10   13  276   15  81.9  75.4 1014.0 -9.9 -9.999 -99.9 -99.99 -9.99
2019/08/21 12:42 EDT    3.54   4.31   12  279   13  81.9  75.4 1013.8 -9.9 -9.999 -99.9 -99.99 -9.99
2019/08/21 12:48 EDT    3.73   4.54   10  278   12  81.5  75.4 1013.7 -9.9 -9.999 -99.9 -99.99 -9.99
2019/08/21 12:54 EDT    3.93   4.73   10  278   12  81.9  75.4 1013.6 -9.9 -9.999 -99.9 -99.99 -9.99
2019/08/21 13:00 EDT    4.13   4.93    8  261   10  81.3  75.4 1013.3 -9.9 -9.999 -99.9 -99.99 -9.99
2019/08/21 13:06 EDT    4.34   5.11   11  274   12  82.4  75.4 1013.1 -9.9 -9.999 -99.9 -99.99 -9.99
2019/08/21 13:12 EDT    4.55   5.29   10  277   11  82.4  75.4 1013.1 -9.9 -9.999 -99.9 -99.99 -9.99
2019/08/21 13:18 EDT    4.77   5.48    8  263   10  82.4  75.4 1013.0 -9.9 -9.999 -99.9 -99.99 -9.99
2019/08/21 13:24 EDT    4.98   5.66    8  248    9  81.9  75.4 1013.0 -9.9 -9.999 -99.9 -99.99 -9.99
2019/08/21 13:30 EDT    5.20   5.82   10  249   14  83.1  75.4 1012.9 -9.9 -9.999 -99.9 -99.99 -9.99
2019/08/21 13:36 EDT    5.42   5.99    8  225   11  84.0  75.4 1012.6 -9.9 -9.999 -99.9 -99.99 -9.99
2019/08/21 13:42 EDT    5.63   6.15   10  242   17  83.8  75.4 1012.5 -9.9 -9.999 -99.9 -99.99 -9.99
2019/08/21 13:48 EDT    5.84   6.31   10  256   13  83.8  75.4 1012.5 -9.9 -9.999 -99.9 -99.99 -9.99
2019/08/21 13:54 EDT    6.04   6.45   10  256   13  83.7  75.4 1012.4 -9.9 -9.999 -99.9 -99.99 -9.99
2019/08/21 14:00 EDT    6.24   6.60   11  227   14  83.7  75.4 1012.3 -9.9 -9.999 -99.9 -99.99 -9.99
2019/08/21 14:06 EDT    6.43   6.73   12  243   21  84.4  75.4 1012.4 -9.9 -9.999 -99.9 -99.99 -9.99
2019/08/21 14:12 EDT    6.60   6.86   14  243   18  84.7  75.4 1012.4 -9.9 -9.999 -99.9 -99.99 -9.99
2019/08/21 14:18 EDT    6.77   6.98   14  243   18  84.4  75.4 1012.4 -9.9 -9.999 -99.9 -99.99 -9.99
2019/08/21 14:24 EDT    6.92   7.12   15  257   16  84.4  75.4 1012.1 -9.9 -9.999 -99.9 -99.99 -9.99
2019/08/21 14:30 EDT    7.06   7.22   15  257   16  84.4  75.4 1012.1 -9.9 -9.999 -99.9 -99.99 -9.99
2019/08/21 14:36 EDT    7.18   7.34   14  267   20  83.8  75.4 1012.1 -9.9 -9.999 -99.9 -99.99 -9.99
2019/08/21 14:42 EDT    7.29   7.44   14  244   20  84.9  75.4 1012.0 -9.9 -9.999 -99.9 -99.99 -9.99
2019/08/21 14:48 EDT    7.39   7.54   11  238   17  84.2  75.6 1012.1 -9.9 -9.999 -99.9 -99.99 -9.99
2019/08/21 14:54 EDT    7.47   7.64   11  234   16  83.8  75.6 1012.1 -9.9 -9.999 -99.9 -99.99 -9.99
2019/08/21 15:00 EDT    7.54   7.73   13  229   20  84.2  75.6 1012.1 -9.9 -9.999 -99.9 -99.99 -9.99
2019/08/21 15:06 EDT    7.59   7.79   12  235   20  83.8  75.6 1012.0 -9.9 -9.999 -99.9 -99.99 -9.99
2019/08/21 15:12 EDT    7.63   7.85   14  221   17  82.8  75.4 1011.9 -9.9 -9.999 -99.9 -99.99 -9.99
2019/08/21 15:18 EDT    7.65   7.89   13  234   17  83.3  75.4 1011.8 -9.9 -9.999 -99.9 -99.99 -9.99
2019/08/21 15:24 EDT    7.67   7.96   15  227   18  84.2  75.4 1011.8 -9.9 -9.999 -99.9 -99.99 -9.99
2019/08/21 15:30 EDT    7.67   7.98   17  227   20  84.0  75.4 1011.8 -9.9 -9.999 -99.9 -99.99 -9.99
2019/08/21 15:36 EDT    7.66   8.03   14  230   17  84.0  75.6 1011.9 -9.9 -9.999 -99.9 -99.99 -9.99
2019/08/21 15:42 EDT    7.64   8.05   14  229   18  83.5  75.6 1011.8 -9.9 -9.999 -99.9 -99.99 -9.99
2019/08/21 15:48 EDT    7.62   8.07   15  218   17  82.4  75.6 1011.7 -9.9 -9.999 -99.9 -99.99 -9.99
2019/08/21 15:54 EDT    7.58   8.09   14  212   17  81.9  75.6 1011.7 -9.9 -9.999 -99.9 -99.99 -9.99
2019/08/21 16:00 EDT    7.54   8.11   13  217   16  82.0  75.6 1011.7 -9.9 -9.999 -99.9 -99.99 -9.99
2019/08/21 16:06 EDT    7.49   8.11   13  215   14  81.5  75.6 1011.8 -9.9 -9.999 -99.9 -99.99 -9.99
2019/08/21 16:12 EDT    7.44   8.12   14  214   17  82.0  75.6 1011.6 -9.9 -9.999 -99.9 -99.99 -9.99
2019/08/21 16:18 EDT    7.39 -99.99 -999 -999 -999 -99.9 -99.9 -999.9 -9.9 -9.999 -99.9 -99.99 -9.99
2019/08/21 16:24 EDT    7.33 -99.99 -999 -999 -999 -99.9 -99.9 -999.9 -9.9 -9.999 -99.9 -99.99 -9.99
2019/08/21 16:30 EDT    7.27 -99.99 -999 -999 -999 -99.9 -99.9 -999.9 -9.9 -9.999 -99.9 -99.99 -9.99

Revised: 08/08/2018
NOAA / National Ocean Service
Web site owner: Center for Operational Oceanographic Products and Services